Wetterdaten: Dienstag, 04.02.2020
Datum Zeit Temp. Aussen Temp. o. S. Temp +5cm Feuchte Auss Luftdruck Regen Sonnenschein Regendauer Solar Windben Empfang
04.02.2020 00:00 5,5 C 4,4 C 3,9 C 96 % 1006,7 hPa 0,2 l/m 0 min 2 min 0 W/m 0,0 km/h (0 Bft) 97,87 %
04.02.2020 00:02 5,5 C 4,4 C 3,9 C 96 % 1006,7 hPa 0,0 l/m 0 min 2 min 0 W/m 16,1 km/h (3 Bft) 97,50 %
04.02.2020 00:04 5,4 C 4,4 C 3,9 C 97 % 1006,8 hPa 0,0 l/m 0 min 2 min 0 W/m 9,7 km/h (2 Bft) 95,74 %
04.02.2020 00:08 5,4 C 4,4 C 3,9 C 97 % 1006,9 hPa 0,0 l/m 0 min 4 min 0 W/m 9,7 km/h (2 Bft) 97,85 %
04.02.2020 00:10 5,4 C 3,9 C 3,9 C 97 % 1007,0 hPa 0,0 l/m 0 min 2 min 0 W/m 12,9 km/h (3 Bft) 97,87 %
04.02.2020 00:12 5,4 C 4,4 C 3,9 C 97 % 1007,0 hPa 0,0 l/m 0 min 2 min 0 W/m 9,7 km/h (2 Bft) 97,87 %
04.02.2020 00:14 5,4 C 4,4 C 3,9 C 97 % 1007,1 hPa 0,0 l/m 0 min 2 min 0 W/m 6,4 km/h (2 Bft) 97,87 %
04.02.2020 00:16 5,3 C 4,4 C 3,9 C 97 % 1007,0 hPa 0,0 l/m 0 min 2 min 0 W/m 6,4 km/h (2 Bft) 95,74 %
04.02.2020 00:18 5,3 C 3,9 C 3,9 C 97 % 1006,9 hPa 0,0 l/m 0 min 2 min 0 W/m 9,7 km/h (2 Bft) 97,83 %
04.02.2020 00:20 5,3 C 3,9 C 3,9 C 97 % 1006,9 hPa 0,0 l/m 0 min 2 min 0 W/m 3,2 km/h (1 Bft) 97,87 %
04.02.2020 00:22 5,3 C 3,9 C 3,9 C 97 % 1006,7 hPa 0,2 l/m 0 min 2 min 0 W/m 3,2 km/h (1 Bft) 93,62 %
04.02.2020 00:24 5,3 C 4,4 C 3,9 C 97 % 1006,8 hPa 0,0 l/m 0 min 2 min 0 W/m 6,4 km/h (2 Bft) 97,87 %
04.02.2020 00:26 5,3 C 4,4 C 3,9 C 97 % 1006,8 hPa 0,0 l/m 0 min 2 min 0 W/m 9,7 km/h (2 Bft) 95,74 %
04.02.2020 00:28 5,3 C 4,4 C 3,9 C 97 % 1006,8 hPa 0,0 l/m 0 min 2 min 0 W/m 0,0 km/h (0 Bft) 97,87 %
04.02.2020 00:30 5,3 C 4,4 C 3,9 C 97 % 1006,8 hPa 0,0 l/m 0 min 2 min 0 W/m 3,2 km/h (1 Bft) 93,48 %
04.02.2020 00:32 5,3 C 4,4 C 3,9 C 97 % 1006,8 hPa 0,0 l/m 0 min 2 min 0 W/m 12,9 km/h (3 Bft) 97,87 %
04.02.2020 00:34 5,3 C 4,4 C 3,9 C 97 % 1006,9 hPa 0,0 l/m 0 min 2 min 0 W/m 9,7 km/h (2 Bft) 100,00 %
04.02.2020 00:36 5,3 C 4,4 C 3,9 C 97 % 1006,9 hPa 0,0 l/m 0 min 2 min 0 W/m 16,1 km/h (3 Bft) 100,00 %
04.02.2020 00:38 5,3 C 4,4 C 3,9 C 97 % 1006,9 hPa 0,0 l/m 0 min 2 min 0 W/m 9,7 km/h (2 Bft) 97,87 %
04.02.2020 00:40 5,3 C 3,9 C 3,9 C 97 % 1007,0 hPa 0,2 l/m 0 min 2 min 0 W/m 16,1 km/h (3 Bft) 97,87 %
04.02.2020 00:42 5,3 C 4,4 C 3,9 C 97 % 1007,0 hPa 0,0 l/m 0 min 2 min 0 W/m 6,4 km/h (2 Bft) 95,65 %
04.02.2020 00:44 5,3 C 4,4 C 3,9 C 97 % 1007,1 hPa 0,0 l/m 0 min 2 min 0 W/m 9,7 km/h (2 Bft) 97,87 %
04.02.2020 00:46 5,2 C 4,4 C 3,9 C 97 % 1007,0 hPa 0,0 l/m 0 min 2 min 0 W/m 9,7 km/h (2 Bft) 97,87 %
04.02.2020 00:48 5,2 C 4,4 C 3,9 C 97 % 1007,0 hPa 0,0 l/m 0 min 2 min 0 W/m 6,4 km/h (2 Bft) 97,87 %
04.02.2020 00:50 5,2 C 4,4 C 3,9 C 97 % 1007,0 hPa 0,0 l/m 0 min 2 min 0 W/m 12,9 km/h (3 Bft) 97,87 %
04.02.2020 00:52 5,2 C 4,4 C 3,9 C 97 % 1007,0 hPa 0,2 l/m 0 min 2 min 0 W/m 6,4 km/h (2 Bft) 97,83 %
04.02.2020 00:54 5,2 C 4,4 C 3,9 C 97 % 1007,0 hPa 0,0 l/m 0 min 2 min 0 W/m 6,4 km/h (2 Bft) 95,74 %
04.02.2020 00:56 5,2 C 4,4 C 3,9 C 97 % 1006,8 hPa 0,0 l/m 0 min 2 min 0 W/m 3,2 km/h (1 Bft) 97,87 %
04.02.2020 00:58 5,2 C 4,4 C 3,9 C 97 % 1006,9 hPa 0,0 l/m 0 min 2 min 0 W/m 3,2 km/h (1 Bft) 95,74 %
04.02.2020 01:00 5,2 C 4,4 C 3,9 C 97 % 1007,0 hPa 0,0 l/m 0 min 2 min 0 W/m 12,9 km/h (3 Bft) 97,87 %
04.02.2020 01:02 5,2 C 4,4 C 3,9 C 97 % 1006,9 hPa 0,0 l/m 0 min 2 min 0 W/m 6,4 km/h (2 Bft) 97,87 %
04.02.2020 01:04 5,2 C 4,4 C 3,9 C 98 % 1007,0 hPa 0,0 l/m 0 min 0 min 0 W/m 3,2 km/h (1 Bft) 97,83 %
04.02.2020 01:06 5,2 C 4,4 C 3,9 C 98 % 1006,9 hPa 0,0 l/m 0 min 0 min 0 W/m 3,2 km/h (1 Bft) 97,87 %
04.02.2020 01:08 5,2 C 4,4 C 3,9 C 98 % 1007,0 hPa 0,0 l/m 0 min 0 min 0 W/m 6,4 km/h (2 Bft) 95,74 %
04.02.2020 01:10 5,2 C 4,4 C 3,9 C 98 % 1007,1 hPa 0,0 l/m 0 min 0 min 0 W/m 3,2 km/h (1 Bft) 97,87 %
04.02.2020 01:12 5,2 C 4,4 C 3,9 C 98 % 1007,2 hPa 0,0 l/m 0 min 0 min 0 W/m 16,1 km/h (3 Bft) 97,87 %
04.02.2020 01:14 5,2 C 4,4 C 3,9 C 98 % 1007,2 hPa 0,0 l/m 0 min 0 min 0 W/m 6,4 km/h (2 Bft) 95,74 %
04.02.2020 01:16 5,2 C 4,4 C 3,9 C 98 % 1007,2 hPa 0,0 l/m 0 min 0 min 0 W/m 0,0 km/h (0 Bft) 97,83 %
04.02.2020 01:18 5,2 C 4,4 C 3,9 C 98 % 1007,2 hPa 0,0 l/m 0 min 2 min 0 W/m 6,4 km/h (2 Bft) 97,87 %
04.02.2020 01:20 5,2 C 4,4 C 3,9 C 98 % 1007,1 hPa 0,0 l/m 0 min 2 min 0 W/m 6,4 km/h (2 Bft) 97,87 %
04.02.2020 01:22 5,2 C 4,4 C 3,9 C 98 % 1007,2 hPa 0,0 l/m 0 min 2 min 0 W/m 6,4 km/h (2 Bft) 97,87 %
04.02.2020 01:24 5,3 C 4,4 C 3,9 C 98 % 1007,2 hPa 0,0 l/m 0 min 2 min 0 W/m 9,7 km/h (2 Bft) 97,87 %
04.02.2020 01:26 5,3 C 4,4 C 3,9 C 98 % 1007,2 hPa 0,0 l/m 0 min 2 min 0 W/m 3,2 km/h (1 Bft) 100,00 %
04.02.2020 01:28 5,3 C 4,4 C 3,9 C 98 % 1007,3 hPa 0,0 l/m 0 min 2 min 0 W/m 12,9 km/h (3 Bft) 100,00 %
04.02.2020 01:30 5,3 C 4,4 C 3,9 C 98 % 1007,3 hPa 0,2 l/m 0 min 2 min 0 W/m 6,4 km/h (2 Bft) 100,00 %
04.02.2020 01:32 5,3 C 4,4 C 3,9 C 98 % 1007,3 hPa 0,0 l/m 0 min 2 min 0 W/m 9,7 km/h (2 Bft) 100,00 %
04.02.2020 01:34 5,3 C 3,9 C 3,9 C 98 % 1007,1 hPa 0,0 l/m 0 min 2 min 0 W/m 3,2 km/h (1 Bft) 100,00 %
04.02.2020 01:36 5,2 C 3,9 C 3,9 C 98 % 1007,1 hPa 0,0 l/m 0 min 2 min 0 W/m 19,3 km/h (3 Bft) 100,00 %
04.02.2020 01:38 5,2 C 3,9 C 3,9 C 98 % 1007,1 hPa 0,0 l/m 0 min 0 min 0 W/m 6,4 km/h (2 Bft) 100,00 %
04.02.2020 01:40 5,2 C 3,9 C 3,9 C 98 % 1007,0 hPa 0,0 l/m 0 min 0 min 0 W/m 6,4 km/h (2 Bft) 100,00 %
04.02.2020 01:42 5,2 C 4,4 C 3,9 C 98 % 1007,0 hPa 0,0 l/m 0 min 2 min 0 W/m 0,0 km/h (0 Bft) 100,00 %
04.02.2020 01:44 5,2 C 4,4 C 3,9 C 98 % 1007,0 hPa 0,0 l/m 0 min 2 min 0 W/m 0,0 km/h (0 Bft) 100,00 %
04.02.2020 01:46 5,2 C 4,4 C 3,9 C 98 % 1007,1 hPa 0,0 l/m 0 min 0 min 0 W/m 0,0 km/h (0 Bft) 100,00 %
04.02.2020 01:48 5,2 C 4,4 C 3,9 C 98 % 1007,0 hPa 0,0 l/m 0 min 0 min 0 W/m 0,0 km/h (0 Bft) 97,87 %
04.02.2020 01:50 5,2 C 4,4 C 3,9 C 98 % 1007,1 hPa 0,0 l/m 0 min 0 min 0 W/m 3,2 km/h (1 Bft) 100,00 %
04.02.2020 01:52 5,2 C 4,4 C 3,9 C 98 % 1007,1 hPa 0,0 l/m 0 min 0 min 0 W/m 3,2 km/h (1 Bft) 100,00 %
04.02.2020 01:54 5,2 C 4,4 C 3,9 C 98 % 1007,0 hPa 0,0 l/m 0 min 0 min 0 W/m 3,2 km/h (1 Bft) 97,87 %
04.02.2020 01:56 5,2 C 4,4 C 3,9 C 98 % 1007,0 hPa 0,0 l/m 0 min 0 min 0 W/m 3,2 km/h (1 Bft) 97,87 %
04.02.2020 01:58 5,2 C 4,4 C 3,9 C 98 % 1006,9 hPa 0,0 l/m 0 min 0 min 0 W/m 0,0 km/h (0 Bft) 97,87 %
04.02.2020 02:00 5,2 C 4,4 C 3,9 C 98 % 1007,0 hPa 0,0 l/m 0 min 0 min 0 W/m 6,4 km/h (2 Bft) 97,87 %
04.02.2020 02:02 5,2 C 4,4 C 3,9 C 98 % 1007,0 hPa 0,0 l/m 0 min 0 min 0 W/m 9,7 km/h (2 Bft) 97,83 %
04.02.2020 02:04 5,2 C 4,4 C 3,9 C 98 % 1006,9 hPa 0,0 l/m 0 min 0 min 0 W/m 0,0 km/h (0 Bft) 95,74 %
04.02.2020 02:06 5,2 C 4,4 C 3,9 C 98 % 1007,0 hPa 0,0 l/m 0 min 0 min 0 W/m 0,0 km/h (0 Bft) 97,87 %
04.02.2020 02:08 5,2 C 4,4 C 3,9 C 98 % 1006,9 hPa 0,0 l/m 0 min 0 min 0 W/m 12,9 km/h (3 Bft) 97,87 %
04.02.2020 02:10 5,2 C 4,4 C 3,9 C 98 % 1007,0 hPa 0,0 l/m 0 min 0 min 0 W/m 12,9 km/h (3 Bft) 97,87 %
04.02.2020 02:12 5,2 C 4,4 C 3,9 C 98 % 1007,0 hPa 0,0 l/m 0 min 0 min 0 W/m 3,2 km/h (1 Bft) 95,74 %
04.02.2020 02:14 5,2 C 4,4 C 3,9 C 98 % 1006,9 hPa 0,0 l/m 0 min 0 min 0 W/m 9,7 km/h (2 Bft) 97,83 %
04.02.2020 02:16 5,2 C 4,4 C 3,9 C 98 % 1007,0 hPa 0,0 l/m 0 min 0 min 0 W/m 3,2 km/h (1 Bft) 97,87 %
04.02.2020 02:18 5,2 C 4,4 C 3,9 C 98 % 1006,9 hPa 0,0 l/m 0 min 0 min 0 W/m 3,2 km/h (1 Bft) 95,74 %
04.02.2020 02:20 5,2 C 4,4 C 3,9 C 98 % 1006,9 hPa 0,0 l/m 0 min 0 min 0 W/m 6,4 km/h (2 Bft) 97,87 %
04.02.2020 02:22 5,2 C 4,4 C 3,9 C 98 % 1007,0 hPa 0,0 l/m 0 min 0 min 0 W/m 12,9 km/h (3 Bft) 95,74 %
04.02.2020 02:24 5,2 C 4,4 C 3,9 C 98 % 1007,1 hPa 0,0 l/m 0 min 0 min 0 W/m 3,2 km/h (1 Bft) 97,87 %
04.02.2020 02:26 5,2 C 4,4 C 3,9 C 98 % 1007,1 hPa 0,0 l/m 0 min 0 min 0 W/m 12,9 km/h (3 Bft) 97,83 %
04.02.2020 02:28 5,2 C 4,4 C 3,9 C 98 % 1007,1 hPa 0,0 l/m 0 min 0 min 0 W/m 3,2 km/h (1 Bft) 97,87 %
04.02.2020 02:30 5,2 C 4,4 C 3,9 C 98 % 1007,2 hPa 0,0 l/m 0 min 0 min 0 W/m 6,4 km/h (2 Bft) 97,87 %
04.02.2020 02:32 5,2 C 4,4 C 3,9 C 98 % 1007,2 hPa 0,0 l/m 0 min 0 min 0 W/m 6,4 km/h (2 Bft) 97,87 %
04.02.2020 02:34 5,2 C 4,4 C 3,9 C 98 % 1007,4 hPa 0,0 l/m 0 min 0 min 0 W/m 19,3 km/h (3 Bft) 97,87 %
04.02.2020 02:36 5,2 C 4,4 C 3,9 C 98 % 1007,3 hPa 0,0 l/m 0 min 0 min 0 W/m 19,3 km/h (3 Bft) 100,00 %
04.02.2020 02:38 5,2 C 4,4 C 3,9 C 98 % 1007,4 hPa 0,0 l/m 0 min 0 min 0 W/m 16,1 km/h (3 Bft) 97,83 %
04.02.2020 02:40 5,2 C 4,4 C 3,9 C 98 % 1007,3 hPa 0,0 l/m 0 min 0 min 0 W/m 9,7 km/h (2 Bft) 95,74 %
04.02.2020 02:42 5,2 C 4,4 C 3,9 C 98 % 1007,4 hPa 0,0 l/m 0 min 0 min 0 W/m 9,7 km/h (2 Bft) 100,00 %
04.02.2020 02:44 5,2 C 4,4 C 3,9 C 98 % 1007,5 hPa 0,0 l/m 0 min 0 min 0 W/m 9,7 km/h (2 Bft) 100,00 %
04.02.2020 02:46 5,2 C 4,4 C 3,9 C 98 % 1007,5 hPa 0,0 l/m 0 min 0 min 0 W/m 9,7 km/h (2 Bft) 97,87 %
04.02.2020 02:48 5,2 C 4,4 C 3,9 C 98 % 1007,5 hPa 0,0 l/m 0 min 2 min 0 W/m 16,1 km/h (3 Bft) 100,00 %
04.02.2020 02:50 5,2 C 4,4 C 3,9 C 98 % 1007,4 hPa 0,0 l/m 0 min 2 min 0 W/m 19,3 km/h (3 Bft) 100,00 %
04.02.2020 02:52 5,2 C 3,9 C 3,9 C 98 % 1007,4 hPa 0,0 l/m 0 min 2 min 0 W/m 16,1 km/h (3 Bft) 100,00 %
04.02.2020 02:54 5,2 C 3,9 C 3,9 C 98 % 1007,5 hPa 0,0 l/m 0 min 2 min 0 W/m 22,5 km/h (4 Bft) 100,00 %
04.02.2020 02:56 5,1 C 3,9 C 3,9 C 98 % 1007,6 hPa 0,2 l/m 0 min 2 min 0 W/m 25,7 km/h (4 Bft) 100,00 %
04.02.2020 02:58 5,1 C 3,9 C 3,9 C 98 % 1007,5 hPa 0,0 l/m 0 min 2 min 0 W/m 19,3 km/h (3 Bft) 100,00 %
04.02.2020 03:00 5,0 C 3,9 C 3,3 C 98 % 1007,6 hPa 0,0 l/m 0 min 2 min 0 W/m 12,9 km/h (3 Bft) 100,00 %
04.02.2020 03:02 4,9 C 3,9 C 3,9 C 98 % 1007,7 hPa 0,0 l/m 0 min 2 min 0 W/m 9,7 km/h (2 Bft) 100,00 %
04.02.2020 03:04 4,9 C 3,9 C 3,3 C 98 % 1007,7 hPa 0,0 l/m 0 min 2 min 0 W/m 12,9 km/h (3 Bft) 100,00 %
04.02.2020 03:06 4,9 C 3,9 C 3,3 C 98 % 1007,7 hPa 0,0 l/m 0 min 0 min 0 W/m 6,4 km/h (2 Bft) 100,00 %
04.02.2020 03:08 4,8 C 3,9 C 3,3 C 98 % 1007,8 hPa 0,0 l/m 0 min 0 min 0 W/m 22,5 km/h (4 Bft) 97,87 %
04.02.2020 03:10 4,8 C 3,3 C 3,3 C 98 % 1007,7 hPa 0,0 l/m 0 min 0 min 0 W/m 16,1 km/h (3 Bft) 95,74 %
04.02.2020 03:12 4,8 C 3,3 C 3,3 C 98 % 1007,8 hPa 0,0 l/m 0 min 0 min 0 W/m 19,3 km/h (3 Bft) 95,65 %
04.02.2020 03:14 4,7 C 3,3 C 3,3 C 98 % 1007,7 hPa 0,0 l/m 0 min 0 min 0 W/m 16,1 km/h (3 Bft) 97,87 %
04.02.2020 03:16 4,7 C 3,3 C 3,3 C 98 % 1007,8 hPa 0,0 l/m 0 min 0 min 0 W/m 3,2 km/h (1 Bft) 95,74 %
04.02.2020 03:18 4,7 C 3,3 C 3,3 C 98 % 1007,8 hPa 0,0 l/m 0 min 0 min 0 W/m 9,7 km/h (2 Bft) 97,87 %
04.02.2020 03:20 4,7 C 3,3 C 3,3 C 98 % 1007,9 hPa 0,0 l/m 0 min 0 min 0 W/m 3,2 km/h (1 Bft) 95,74 %
04.02.2020 03:22 4,7 C 3,9 C 3,3 C 98 % 1007,9 hPa 0,0 l/m 0 min 0 min 0 W/m 16,1 km/h (3 Bft) 95,74 %
04.02.2020 03:24 4,7 C 3,9 C 3,3 C 98 % 1008,0 hPa 0,0 l/m 0 min 0 min 0 W/m 22,5 km/h (4 Bft) 95,65 %
04.02.2020 03:26 4,7 C 3,3 C 3,3 C 98 % 1008,0 hPa 0,0 l/m 0 min 0 min 0 W/m 6,4 km/h (2 Bft) 95,74 %
04.02.2020 03:28 4,7 C 3,3 C 3,3 C 98 % 1007,9 hPa 0,0 l/m 0 min 0 min 0 W/m 6,4 km/h (2 Bft) 95,74 %
04.02.2020 03:30 4,6 C 3,3 C 3,3 C 98 % 1007,9 hPa 0,0 l/m 0 min 0 min 0 W/m 16,1 km/h (3 Bft) 95,74 %
04.02.2020 03:32 4,6 C 3,3 C 3,3 C 98 % 1008,0 hPa 0,0 l/m 0 min 0 min 0 W/m 3,2 km/h (1 Bft) 93,62 %
04.02.2020 03:34 4,6 C 3,3 C 3,3 C 98 % 1008,0 hPa 0,0 l/m 0 min 0 min 0 W/m 6,4 km/h (2 Bft) 95,74 %
04.02.2020 03:36 4,6 C 3,3 C 3,3 C 98 % 1008,0 hPa 0,0 l/m 0 min 0 min 0 W/m 19,3 km/h (3 Bft) 95,65 %
04.02.2020 03:38 4,6 C 3,3 C 3,3 C 98 % 1008,0 hPa 0,0 l/m 0 min 0 min 0 W/m 3,2 km/h (1 Bft) 95,74 %
04.02.2020 03:40 4,6 C 3,3 C 3,3 C 98 % 1008,0 hPa 0,0 l/m 0 min 0 min 0 W/m 9,7 km/h (2 Bft) 93,62 %
04.02.2020 03:42 4,6 C 3,3 C 3,3 C 98 % 1008,0 hPa 0,0 l/m 0 min 0 min 0 W/m 3,2 km/h (1 Bft) 95,74 %
04.02.2020 03:44 4,6 C 3,3 C 3,3 C 98 % 1008,1 hPa 0,0 l/m 0 min 0 min 0 W/m 9,7 km/h (2 Bft) 95,74 %
04.02.2020 03:46 4,6 C 3,3 C 3,3 C 98 % 1008,1 hPa 0,0 l/m 0 min 0 min 0 W/m 9,7 km/h (2 Bft) 95,65 %
04.02.2020 03:48 4,6 C 3,3 C 3,3 C 98 % 1008,1 hPa 0,0 l/m 0 min 0 min 0 W/m 16,1 km/h (3 Bft) 93,62 %
04.02.2020 03:50 4,6 C 3,3 C 3,3 C 98 % 1008,2 hPa 0,0 l/m 0 min 0 min 0 W/m 6,4 km/h (2 Bft) 95,74 %
04.02.2020 03:52 4,6 C 3,3 C 3,3 C 98 % 1008,2 hPa 0,0 l/m 0 min 0 min 0 W/m 19,3 km/h (3 Bft) 95,74 %
04.02.2020 03:54 4,6 C 3,3 C 3,3 C 98 % 1008,2 hPa 0,0 l/m 0 min 0 min 0 W/m 16,1 km/h (3 Bft) 97,87 %
04.02.2020 03:56 4,6 C 3,3 C 3,3 C 98 % 1008,3 hPa 0,0 l/m 0 min 0 min 0 W/m 6,4 km/h (2 Bft) 95,74 %
04.02.2020 03:58 4,6 C 3,3 C 3,3 C 98 % 1008,3 hPa 0,0 l/m 0 min 0 min 0 W/m 16,1 km/h (3 Bft) 91,49 %
04.02.2020 04:00 4,6 C 3,3 C 3,3 C 98 % 1008,4 hPa 0,0 l/m 0 min 0 min 0 W/m 9,7 km/h (2 Bft) 95,65 %
04.02.2020 04:02 4,5 C 3,3 C 3,3 C 98 % 1008,5 hPa 0,0 l/m 0 min 0 min 0 W/m 9,7 km/h (2 Bft) 96,00 %
04.02.2020 04:04 4,5 C 3,3 C 2,8 C 98 % 1008,4 hPa 0,0 l/m 0 min 0 min 0 W/m 9,7 km/h (2 Bft) 97,87 %
04.02.2020 04:06 4,4 C 3,3 C 2,8 C 98 % 1008,5 hPa 0,0 l/m 0 min 0 min 0 W/m 9,7 km/h (2 Bft) 95,74 %
04.02.2020 04:08 4,4 C 3,3 C 3,3 C 98 % 1008,6 hPa 0,0 l/m 0 min 0 min 0 W/m 6,4 km/h (2 Bft) 97,87 %
04.02.2020 04:10 4,4 C 3,3 C 3,3 C 98 % 1008,6 hPa 0,0 l/m 0 min 0 min 0 W/m 9,7 km/h (2 Bft) 95,74 %
04.02.2020 04:12 4,4 C 3,3 C 3,3 C 98 % 1008,7 hPa 0,0 l/m 0 min 0 min 0 W/m 16,1 km/h (3 Bft) 97,83 %
04.02.2020 04:14 4,4 C 3,3 C 3,3 C 98 % 1008,7 hPa 0,0 l/m 0 min 0 min 0 W/m 12,9 km/h (3 Bft) 97,87 %
04.02.2020 04:16 4,4 C 3,3 C 3,3 C 98 % 1008,7 hPa 0,0 l/m 0 min 0 min 0 W/m 3,2 km/h (1 Bft) 100,00 %
04.02.2020 04:18 4,4 C 3,3 C 3,3 C 98 % 1008,7 hPa 0,0 l/m 0 min 0 min 0 W/m 9,7 km/h (2 Bft) 100,00 %
04.02.2020 04:20 4,4 C 3,3 C 3,3 C 98 % 1008,7 hPa 0,0 l/m 0 min 0 min 0 W/m 19,3 km/h (3 Bft) 100,00 %
04.02.2020 04:22 4,4 C 3,3 C 3,3 C 98 % 1008,9 hPa 0,0 l/m 0 min 0 min 0 W/m 19,3 km/h (3 Bft) 100,00 %
04.02.2020 04:24 4,4 C 3,9 C 3,3 C 98 % 1009,0 hPa 0,0 l/m 0 min 0 min 0 W/m 12,9 km/h (3 Bft) 100,00 %
04.02.2020 04:26 4,5 C 3,9 C 3,3 C 98 % 1009,0 hPa 0,0 l/m 0 min 0 min 0 W/m 16,1 km/h (3 Bft) 100,00 %
04.02.2020 04:28 4,5 C 3,9 C 3,3 C 98 % 1009,1 hPa 0,0 l/m 0 min 0 min 0 W/m 12,9 km/h (3 Bft) 100,00 %
04.02.2020 04:30 4,5 C 3,9 C 3,3 C 98 % 1009,0 hPa 0,0 l/m 0 min 0 min 0 W/m 25,7 km/h (4 Bft) 100,00 %
04.02.2020 04:32 4,5 C 3,9 C 3,3 C 98 % 1009,0 hPa 0,0 l/m 0 min 0 min 0 W/m 9,7 km/h (2 Bft) 100,00 %
04.02.2020 04:34 4,6 C 3,9 C 3,3 C 98 % 1009,1 hPa 0,0 l/m 0 min 0 min 0 W/m 25,7 km/h (4 Bft) 100,00 %
04.02.2020 04:36 4,6 C 3,9 C 3,3 C 98 % 1009,1 hPa 0,0 l/m 0 min 0 min 0 W/m 12,9 km/h (3 Bft) 100,00 %
04.02.2020 04:38 4,6 C 3,9 C 3,3 C 98 % 1009,1 hPa 0,0 l/m 0 min 0 min 0 W/m 19,3 km/h (3 Bft) 100,00 %
04.02.2020 04:40 4,6 C 3,9 C 3,3 C 98 % 1009,2 hPa 0,0 l/m 0 min 0 min 0 W/m 12,9 km/h (3 Bft) 95,74 %
04.02.2020 04:42 4,6 C 3,9 C 3,3 C 98 % 1009,2 hPa 0,0 l/m 0 min 0 min 0 W/m 3,2 km/h (1 Bft) 97,87 %
04.02.2020 04:44 4,6 C 3,9 C 3,3 C 98 % 1009,2 hPa 0,0 l/m 0 min 0 min 0 W/m 9,7 km/h (2 Bft) 95,74 %
04.02.2020 04:46 4,6 C 3,9 C 3,3 C 98 % 1009,2 hPa 0,0 l/m 0 min 0 min 0 W/m 12,9 km/h (3 Bft) 97,83 %
04.02.2020 04:48 4,6 C 3,9 C 3,3 C 98 % 1009,2 hPa 0,0 l/m 0 min 0 min 0 W/m 12,9 km/h (3 Bft) 97,87 %
04.02.2020 04:50 4,5 C 3,9 C 3,3 C 98 % 1009,3 hPa 0,0 l/m 0 min 0 min 0 W/m 12,9 km/h (3 Bft) 74,47 %
04.02.2020 04:52 4,5 C 3,9 C 3,3 C 98 % 1009,3 hPa 0,0 l/m 0 min 0 min 0 W/m 12,9 km/h (3 Bft) 72,50 %
04.02.2020 04:54 4,5 C 3,9 C 3,3 C 98 % 1009,3 hPa 0,0 l/m 0 min 0 min 0 W/m 12,9 km/h (3 Bft) 95,74 %
04.02.2020 04:56 4,5 C 3,9 C 3,3 C 98 % 1009,4 hPa 0,0 l/m 0 min 0 min 0 W/m 19,3 km/h (3 Bft) 95,65 %
04.02.2020 04:58 4,5 C 3,9 C 3,3 C 98 % 1009,4 hPa 0,0 l/m 0 min 0 min 0 W/m 16,1 km/h (3 Bft) 95,74 %
04.02.2020 05:00 4,5 C 3,9 C 3,3 C 98 % 1009,4 hPa 0,0 l/m 0 min 0 min 0 W/m 12,9 km/h (3 Bft) 97,87 %
04.02.2020 05:02 4,5 C 3,9 C 3,3 C 98 % 1009,4 hPa 0,0 l/m 0 min 0 min 0 W/m 19,3 km/h (3 Bft) 95,74 %
04.02.2020 05:04 4,5 C 3,9 C 3,3 C 98 % 1009,5 hPa 0,0 l/m 0 min 0 min 0 W/m 12,9 km/h (3 Bft) 97,87 %
04.02.2020 05:06 4,5 C 3,9 C 3,3 C 98 % 1009,5 hPa 0,0 l/m 0 min 0 min 0 W/m 3,2 km/h (1 Bft) 97,87 %
04.02.2020 05:08 4,5 C 3,9 C 3,3 C 97 % 1009,4 hPa 0,0 l/m 0 min 0 min 0 W/m 6,4 km/h (2 Bft) 97,83 %
04.02.2020 05:10 4,5 C 3,9 C 3,3 C 98 % 1009,5 hPa 0,0 l/m 0 min 0 min 0 W/m 12,9 km/h (3 Bft) 97,87 %
04.02.2020 05:12 4,5 C 3,9 C 3,3 C 98 % 1009,6 hPa 0,0 l/m 0 min 0 min 0 W/m 12,9 km/h (3 Bft) 95,74 %
04.02.2020 05:14 4,5 C 3,9 C 3,3 C 98 % 1009,6 hPa 0,0 l/m 0 min 0 min 0 W/m 6,4 km/h (2 Bft) 97,87 %
04.02.2020 05:16 4,5 C 3,9 C 3,3 C 97 % 1009,7 hPa 0,0 l/m 0 min 0 min 0 W/m 22,5 km/h (4 Bft) 95,74 %
04.02.2020 05:18 4,5 C 3,9 C 3,3 C 97 % 1009,8 hPa 0,0 l/m 0 min 0 min 0 W/m 12,9 km/h (3 Bft) 97,87 %
04.02.2020 05:20 4,5 C 3,9 C 3,3 C 97 % 1009,8 hPa 0,0 l/m 0 min 0 min 0 W/m 3,2 km/h (1 Bft) 97,83 %
04.02.2020 05:22 4,5 C 3,9 C 3,3 C 97 % 1009,9 hPa 0,0 l/m 0 min 0 min 0 W/m 12,9 km/h (3 Bft) 97,87 %
04.02.2020 05:24 4,5 C 3,9 C 3,3 C 97 % 1009,9 hPa 0,0 l/m 0 min 0 min 0 W/m 16,1 km/h (3 Bft) 100,00 %
04.02.2020 05:26 4,5 C 3,9 C 3,3 C 97 % 1009,9 hPa 0,0 l/m 0 min 0 min 0 W/m 6,4 km/h (2 Bft) 97,87 %
04.02.2020 05:28 4,5 C 3,9 C 3,3 C 97 % 1010,0 hPa 0,0 l/m 0 min 0 min 0 W/m 16,1 km/h (3 Bft) 100,00 %
04.02.2020 05:30 4,6 C 3,9 C 3,3 C 97 % 1010,0 hPa 0,0 l/m 0 min 0 min 0 W/m 6,4 km/h (2 Bft) 100,00 %
04.02.2020 05:32 4,5 C 3,9 C 3,3 C 97 % 1009,9 hPa 0,0 l/m 0 min 0 min 0 W/m 25,7 km/h (4 Bft) 97,83 %
04.02.2020 05:34 4,5 C 3,9 C 3,3 C 97 % 1010,0 hPa 0,0 l/m 0 min 0 min 0 W/m 6,4 km/h (2 Bft) 97,87 %
04.02.2020 05:36 4,6 C 3,9 C 3,3 C 97 % 1010,1 hPa 0,0 l/m 0 min 0 min 0 W/m 19,3 km/h (3 Bft) 100,00 %
04.02.2020 05:38 4,5 C 3,3 C 3,3 C 97 % 1010,2 hPa 0,0 l/m 0 min 0 min 0 W/m 16,1 km/h (3 Bft) 100,00 %
04.02.2020 05:40 4,6 C 3,3 C 3,3 C 97 % 1010,2 hPa 0,0 l/m 0 min 0 min 0 W/m 12,9 km/h (3 Bft) 100,00 %
04.02.2020 05:42 4,5 C 3,3 C 3,3 C 97 % 1010,2 hPa 0,0 l/m 0 min 0 min 0 W/m 16,1 km/h (3 Bft) 100,00 %
04.02.2020 05:44 4,5 C 3,3 C 3,3 C 97 % 1010,2 hPa 0,0 l/m 0 min 0 min 0 W/m 22,5 km/h (4 Bft) 97,83 %
04.02.2020 05:46 4,6 C 3,3 C 3,3 C 96 % 1010,2 hPa 0,0 l/m 0 min 0 min 0 W/m 9,7 km/h (2 Bft) 100,00 %
04.02.2020 05:48 4,5 C 3,3 C 3,3 C 96 % 1010,3 hPa 0,0 l/m 0 min 0 min 0 W/m 16,1 km/h (3 Bft) 97,87 %
04.02.2020 05:50 4,5 C 3,3 C 3,3 C 96 % 1010,3 hPa 0,0 l/m 0 min 0 min 0 W/m 12,9 km/h (3 Bft) 97,87 %
04.02.2020 05:52 4,5 C 3,3 C 3,3 C 96 % 1010,3 hPa 0,0 l/m 0 min 0 min 0 W/m 19,3 km/h (3 Bft) 100,00 %
04.02.2020 05:54 4,5 C 3,3 C 3,3 C 96 % 1010,4 hPa 0,0 l/m 0 min 0 min 0 W/m 22,5 km/h (4 Bft) 97,87 %
04.02.2020 05:56 4,5 C 3,3 C 3,3 C 96 % 1010,3 hPa 0,0 l/m 0 min 0 min 0 W/m 16,1 km/h (3 Bft) 93,48 %
04.02.2020 05:58 4,5 C 3,3 C 3,3 C 96 % 1010,4 hPa 0,0 l/m 0 min 0 min 0 W/m 22,5 km/h (4 Bft) 97,87 %
04.02.2020 06:00 4,5 C 3,3 C 3,3 C 96 % 1010,3 hPa 0,0 l/m 0 min 0 min 0 W/m 19,3 km/h (3 Bft) 97,87 %
04.02.2020 06:02 4,5 C 3,3 C 2,8 C 96 % 1010,5 hPa 0,0 l/m 0 min 0 min 0 W/m 22,5 km/h (4 Bft) 97,87 %
04.02.2020 06:04 4,5 C 3,3 C 2,8 C 96 % 1010,4 hPa 0,0 l/m 0 min 0 min 0 W/m 32,2 km/h (5 Bft) 100,00 %
04.02.2020 06:06 4,5 C 3,3 C 2,8 C 96 % 1010,4 hPa 0,0 l/m 0 min 0 min 0 W/m 16,1 km/h (3 Bft) 97,83 %
04.02.2020 06:08 4,5 C 3,3 C 2,8 C 96 % 1010,5 hPa 0,0 l/m 0 min 0 min 0 W/m 9,7 km/h (2 Bft) 97,87 %
04.02.2020 06:10 4,5 C 3,3 C 2,8 C 95 % 1010,5 hPa 0,0 l/m 0 min 0 min 0 W/m 16,1 km/h (3 Bft) 97,87 %
04.02.2020 06:12 4,4 C 3,3 C 2,8 C 95 % 1010,5 hPa 0,0 l/m 0 min 0 min 0 W/m 22,5 km/h (4 Bft) 97,87 %
04.02.2020 06:14 4,4 C 3,3 C 2,8 C 95 % 1010,6 hPa 0,0 l/m 0 min 0 min 0 W/m 16,1 km/h (3 Bft) 97,87 %
04.02.2020 06:16 4,4 C 3,3 C 2,8 C 95 % 1010,6 hPa 0,0 l/m 0 min 0 min 0 W/m 12,9 km/h (3 Bft) 97,87 %
04.02.2020 06:18 4,4 C 3,3 C 2,8 C 95 % 1010,6 hPa 0,0 l/m 0 min 0 min 0 W/m 12,9 km/h (3 Bft) 97,83 %
04.02.2020 06:20 4,3 C 3,3 C 2,8 C 95 % 1010,7 hPa 0,0 l/m 0 min 0 min 0 W/m 22,5 km/h (4 Bft) 97,87 %
04.02.2020 06:22 4,3 C 3,3 C 2,8 C 95 % 1010,7 hPa 0,0 l/m 0 min 0 min 0 W/m 19,3 km/h (3 Bft) 97,87 %
04.02.2020 06:24 4,3 C 3,3 C 2,8 C 95 % 1010,7 hPa 0,0 l/m 0 min 0 min 0 W/m 19,3 km/h (3 Bft) 97,87 %
04.02.2020 06:26 4,3 C 3,3 C 2,8 C 95 % 1010,6 hPa 0,0 l/m 0 min 0 min 0 W/m 12,9 km/h (3 Bft) 95,74 %
04.02.2020 06:28 4,3 C 3,3 C 2,8 C 95 % 1010,8 hPa 0,0 l/m 0 min 0 min 0 W/m 16,1 km/h (3 Bft) 100,00 %
04.02.2020 06:30 4,3 C 3,3 C 2,8 C 95 % 1010,8 hPa 0,0 l/m 0 min 0 min 0 W/m 19,3 km/h (3 Bft) 100,00 %
04.02.2020 06:32 4,3 C 3,3 C 2,8 C 95 % 1010,8 hPa 0,0 l/m 0 min 0 min 0 W/m 12,9 km/h (3 Bft) 100,00 %
04.02.2020 06:34 4,3 C 3,3 C 2,8 C 95 % 1010,8 hPa 0,0 l/m 0 min 0 min 0 W/m 16,1 km/h (3 Bft) 100,00 %
04.02.2020 06:36 4,3 C 3,3 C 2,8 C 95 % 1010,8 hPa 0,0 l/m 0 min 0 min 0 W/m 12,9 km/h (3 Bft) 97,87 %
04.02.2020 06:38 4,3 C 3,3 C 2,8 C 95 % 1010,8 hPa 0,0 l/m 0 min 0 min 0 W/m 25,7 km/h (4 Bft) 100,00 %
04.02.2020 06:40 4,2 C 3,3 C 2,8 C 94 % 1010,8 hPa 0,0 l/m 0 min 0 min 0 W/m 19,3 km/h (3 Bft) 97,87 %
04.02.2020 06:42 4,2 C 3,3 C 2,8 C 94 % 1010,8 hPa 0,0 l/m 0 min 0 min 0 W/m 22,5 km/h (4 Bft) 97,83 %
04.02.2020 06:44 4,3 C 3,3 C 2,8 C 94 % 1010,8 hPa 0,0 l/m 0 min 0 min 0 W/m 16,1 km/h (3 Bft) 97,87 %
04.02.2020 06:46 4,2 C 3,3 C 2,8 C 94 % 1010,8 hPa 0,0 l/m 0 min 0 min 0 W/m 9,7 km/h (2 Bft) 100,00 %
04.02.2020 06:48 4,3 C 3,3 C 2,8 C 94 % 1010,8 hPa 0,0 l/m 0 min 0 min 0 W/m 19,3 km/h (3 Bft) 97,87 %
04.02.2020 06:50 4,3 C 3,3 C 2,8 C 94 % 1010,8 hPa 0,0 l/m 0 min 0 min 0 W/m 12,9 km/h (3 Bft) 100,00 %
04.02.2020 06:52 4,3 C 3,3 C 2,8 C 94 % 1010,9 hPa 0,0 l/m 0 min 0 min 0 W/m 19,3 km/h (3 Bft) 100,00 %
04.02.2020 06:54 4,2 C 3,3 C 2,8 C 94 % 1010,9 hPa 0,0 l/m 0 min 0 min 0 W/m 9,7 km/h (2 Bft) 97,83 %
04.02.2020 06:56 4,2 C 3,3 C 2,8 C 94 % 1010,9 hPa 0,0 l/m 0 min 0 min 0 W/m 12,9 km/h (3 Bft) 97,87 %
04.02.2020 06:58 4,2 C 3,3 C 2,8 C 94 % 1011,0 hPa 0,0 l/m 0 min 0 min 0 W/m 16,1 km/h (3 Bft) 97,87 %
04.02.2020 07:00 4,2 C 3,3 C 2,8 C 94 % 1010,8 hPa 0,0 l/m 0 min 0 min 0 W/m 19,3 km/h (3 Bft) 95,74 %
04.02.2020 07:02 4,2 C 3,3 C 2,8 C 94 % 1011,0 hPa 0,0 l/m 0 min 0 min 0 W/m 12,9 km/h (3 Bft) 95,74 %
04.02.2020 07:04 4,2 C 3,3 C 2,8 C 94 % 1011,0 hPa 0,0 l/m 0 min 0 min 0 W/m 9,7 km/h (2 Bft) 98,00 %
04.02.2020 07:06 4,2 C 3,3 C 2,8 C 94 % 1011,0 hPa 0,0 l/m 0 min 2 min 0 W/m 16,1 km/h (3 Bft) 97,83 %
04.02.2020 07:08 4,2 C 3,9 C 2,8 C 94 % 1011,1 hPa 0,0 l/m 0 min 0 min 0 W/m 16,1 km/h (3 Bft) 95,74 %
04.02.2020 07:10 4,2 C 3,9 C 2,8 C 94 % 1011,1 hPa 0,0 l/m 0 min 0 min 0 W/m 16,1 km/h (3 Bft) 97,87 %
04.02.2020 07:12 4,2 C 3,9 C 2,8 C 94 % 1011,1 hPa 0,0 l/m 0 min 0 min 0 W/m 19,3 km/h (3 Bft) 97,87 %
04.02.2020 07:14 4,2 C 3,3 C 2,8 C 94 % 1011,1 hPa 0,0 l/m 0 min 0 min 0 W/m 16,1 km/h (3 Bft) 97,87 %
04.02.2020 07:16 4,2 C 3,3 C 2,8 C 94 % 1011,2 hPa 0,0 l/m 0 min 0 min 0 W/m 16,1 km/h (3 Bft) 97,87 %
04.02.2020 07:18 4,2 C 3,3 C 2,8 C 94 % 1011,1 hPa 0,0 l/m 0 min 0 min 0 W/m 35,4 km/h (5 Bft) 97,83 %
04.02.2020 07:20 4,2 C 3,3 C 2,8 C 94 % 1011,2 hPa 0,0 l/m 0 min 0 min 0 W/m 19,3 km/h (3 Bft) 97,87 %
04.02.2020 07:22 4,2 C 3,3 C 2,8 C 94 % 1011,1 hPa 0,0 l/m 0 min 0 min 0 W/m 16,1 km/h (3 Bft) 95,74 %
04.02.2020 07:24 4,2 C 3,3 C 2,8 C 94 % 1011,2 hPa 0,0 l/m 0 min 0 min 0 W/m 19,3 km/h (3 Bft) 95,74 %
04.02.2020 07:26 4,2 C 3,3 C 2,8 C 94 % 1011,3 hPa 0,0 l/m 0 min 0 min 0 W/m 12,9 km/h (3 Bft) 95,74 %
04.02.2020 07:28 4,2 C 3,3 C 2,8 C 94 % 1011,3 hPa 0,0 l/m 0 min 0 min 0 W/m 19,3 km/h (3 Bft) 95,74 %
04.02.2020 07:30 4,2 C 3,3 C 2,8 C 94 % 1011,3 hPa 0,0 l/m 0 min 0 min 0 W/m 16,1 km/h (3 Bft) 95,65 %
04.02.2020 07:32 4,2 C 3,9 C 2,8 C 94 % 1011,3 hPa 0,0 l/m 0 min 0 min 0 W/m 22,5 km/h (4 Bft) 95,74 %
04.02.2020 07:34 4,2 C 3,9 C 2,8 C 94 % 1011,3 hPa 0,0 l/m 0 min 0 min 0 W/m 16,1 km/h (3 Bft) 93,62 %
04.02.2020 07:36 4,2 C 3,9 C 2,8 C 94 % 1011,4 hPa 0,0 l/m 0 min 0 min 0 W/m 19,3 km/h (3 Bft) 91,49 %
04.02.2020 07:38 4,2 C 3,9 C 2,8 C 94 % 1011,4 hPa 0,0 l/m 0 min 0 min 0 W/m 16,1 km/h (3 Bft) 95,74 %
04.02.2020 07:40 4,2 C 3,9 C 2,8 C 94 % 1011,5 hPa 0,0 l/m 0 min 0 min 0 W/m 22,5 km/h (4 Bft) 95,74 %
04.02.2020 07:42 4,2 C 3,9 C 2,8 C 94 % 1011,4 hPa 0,0 l/m 0 min 0 min 0 W/m 19,3 km/h (3 Bft) 95,65 %
04.02.2020 07:44 4,2 C 3,9 C 2,8 C 94 % 1011,4 hPa 0,0 l/m 0 min 0 min 0 W/m 16,1 km/h (3 Bft) 95,74 %
04.02.2020 07:46 4,2 C 3,9 C 2,8 C 94 % 1011,5 hPa 0,0 l/m 0 min 0 min 0 W/m 22,5 km/h (4 Bft) 95,74 %
04.02.2020 07:48 4,2 C 3,3 C 2,8 C 94 % 1011,5 hPa 0,0 l/m 0 min 0 min 0 W/m 16,1 km/h (3 Bft) 93,62 %
04.02.2020 07:50 4,2 C 3,3 C 2,8 C 94 % 1011,5 hPa 0,0 l/m 0 min 0 min 0 W/m 22,5 km/h (4 Bft) 93,62 %
04.02.2020 07:52 4,2 C 3,3 C 2,8 C 94 % 1011,6 hPa 0,0 l/m 0 min 0 min 0 W/m 22,5 km/h (4 Bft) 95,65 %
04.02.2020 07:54 4,2 C 3,3 C 2,8 C 94 % 1011,5 hPa 0,0 l/m 0 min 0 min 0 W/m 16,1 km/h (3 Bft) 97,87 %
04.02.2020 07:56 4,2 C 3,9 C 2,8 C 93 % 1011,4 hPa 0,0 l/m 0 min 0 min 0 W/m 19,3 km/h (3 Bft) 97,87 %
04.02.2020 07:58 4,2 C 3,9 C 2,8 C 93 % 1011,6 hPa 0,0 l/m 0 min 0 min 0 W/m 25,7 km/h (4 Bft) 97,87 %
04.02.2020 08:00 4,2 C 3,9 C 2,8 C 93 % 1011,5 hPa 0,0 l/m 0 min 0 min 0 W/m 19,3 km/h (3 Bft) 53,49 %
04.02.2020 08:02 4,2 C 3,3 C 2,8 C 93 % 1011,4 hPa 0,0 l/m 0 min 0 min 0 W/m 16,1 km/h (3 Bft) 95,74 %
04.02.2020 08:04 4,2 C 3,3 C 2,8 C 93 % 1011,5 hPa 0,0 l/m 0 min 0 min 0 W/m 19,3 km/h (3 Bft) 97,83 %
04.02.2020 08:06 4,2 C 3,3 C 2,8 C 93 % 1011,5 hPa 0,0 l/m 0 min 0 min 0 W/m 16,1 km/h (3 Bft) 97,87 %
04.02.2020 08:08 4,2 C 3,3 C 2,2 C 93 % 1011,6 hPa 0,0 l/m 0 min 0 min 0 W/m 12,9 km/h (3 Bft) 95,74 %
04.02.2020 08:10 4,2 C 3,3 C 2,2 C 93 % 1011,7 hPa 0,0 l/m 0 min 0 min 3 W/m 16,1 km/h (3 Bft) 97,87 %
04.02.2020 08:12 4,2 C 3,3 C 2,2 C 93 % 1011,7 hPa 0,0 l/m 0 min 0 min 5 W/m 16,1 km/h (3 Bft) 97,87 %
04.02.2020 08:14 4,1 C 3,3 C 2,2 C 93 % 1011,6 hPa 0,0 l/m 0 min 0 min 5 W/m 16,1 km/h (3 Bft) 97,87 %
04.02.2020 08:16 4,1 C 3,3 C 2,8 C 93 % 1011,7 hPa 0,0 l/m 0 min 0 min 6 W/m 19,3 km/h (3 Bft) 97,83 %
04.02.2020 08:18 4,1 C 3,3 C 2,2 C 92 % 1011,7 hPa 0,0 l/m 0 min 0 min 7 W/m 16,1 km/h (3 Bft) 97,87 %
04.02.2020 08:20 4,1 C 3,3 C 2,8 C 92 % 1011,8 hPa 0,0 l/m 0 min 0 min 8 W/m 9,7 km/h (2 Bft) 97,87 %
04.02.2020 08:22 4,1 C 3,3 C 2,2 C 92 % 1011,7 hPa 0,0 l/m 0 min 0 min 9 W/m 19,3 km/h (3 Bft) 97,87 %
04.02.2020 08:24 4,1 C 3,3 C 2,2 C 92 % 1011,8 hPa 0,0 l/m 0 min 0 min 11 W/m 19,3 km/h (3 Bft) 97,87 %
04.02.2020 08:26 4,1 C 3,3 C 2,8 C 92 % 1011,6 hPa 0,0 l/m 0 min 0 min 12 W/m 19,3 km/h (3 Bft) 95,74 %
04.02.2020 08:28 4,1 C 3,3 C 2,8 C 92 % 1011,7 hPa 0,0 l/m 0 min 0 min 12 W/m 12,9 km/h (3 Bft) 97,83 %
04.02.2020 08:30 4,1 C 3,3 C 2,8 C 92 % 1011,8 hPa 0,0 l/m 0 min 0 min 14 W/m 16,1 km/h (3 Bft) 95,74 %
04.02.2020 08:32 4,1 C 3,3 C 2,8 C 92 % 1011,7 hPa 0,0 l/m 0 min 0 min 15 W/m 12,9 km/h (3 Bft) 97,87 %
04.02.2020 08:34 4,1 C 3,3 C 2,8 C 92 % 1011,8 hPa 0,0 l/m 0 min 0 min 16 W/m 12,9 km/h (3 Bft) 97,87 %
04.02.2020 08:36 4,1 C 3,3 C 2,8 C 92 % 1011,8 hPa 0,0 l/m 0 min 0 min 18 W/m 12,9 km/h (3 Bft) 97,87 %
04.02.2020 08:38 4,1 C 3,3 C 2,8 C 92 % 1011,8 hPa 0,0 l/m 0 min 0 min 19 W/m 16,1 km/h (3 Bft) 97,83 %
04.02.2020 08:40 4,1 C 3,3 C 2,8 C 92 % 1011,9 hPa 0,0 l/m 0 min 0 min 21 W/m 9,7 km/h (2 Bft) 95,74 %
04.02.2020 08:42 4,1 C 3,9 C 2,8 C 92 % 1011,9 hPa 0,0 l/m 0 min 0 min 24 W/m 16,1 km/h (3 Bft) 97,87 %
04.02.2020 08:44 4,1 C 3,9 C 2,8 C 92 % 1011,9 hPa 0,0 l/m 0 min 0 min 26 W/m 16,1 km/h (3 Bft) 97,87 %
04.02.2020 08:46 4,1 C 3,9 C 2,8 C 92 % 1011,9 hPa 0,0 l/m 0 min 0 min 32 W/m 16,1 km/h (3 Bft) 97,87 %
04.02.2020 08:48 4,1 C 3,9 C 2,8 C 92 % 1011,9 hPa 0,0 l/m 0 min 0 min 36 W/m 12,9 km/h (3 Bft) 97,87 %
04.02.2020 08:50 4,1 C 3,9 C 2,8 C 92 % 1011,9 hPa 0,0 l/m 0 min 0 min 40 W/m 16,1 km/h (3 Bft) 97,83 %
04.02.2020 08:52 4,2 C 3,9 C 2,8 C 92 % 1011,9 hPa 0,0 l/m 0 min 0 min 42 W/m 9,7 km/h (2 Bft) 100,00 %
04.02.2020 08:54 4,2 C 4,4 C 2,8 C 93 % 1011,9 hPa 0,0 l/m 0 min 0 min 41 W/m 9,7 km/h (2 Bft) 100,00 %
04.02.2020 08:56 4,2 C 4,4 C 2,8 C 93 % 1012,0 hPa 0,0 l/m 0 min 0 min 38 W/m 16,1 km/h (3 Bft) 97,87 %
04.02.2020 08:58 4,3 C 4,4 C 3,3 C 93 % 1011,9 hPa 0,0 l/m 0 min 0 min 44 W/m 19,3 km/h (3 Bft) 100,00 %
04.02.2020 09:00 4,3 C 4,4 C 3,3 C 93 % 1012,0 hPa 0,0 l/m 0 min 0 min 35 W/m 16,1 km/h (3 Bft) 100,00 %
04.02.2020 09:02 4,3 C 4,4 C 3,3 C 92 % 1012,0 hPa 0,0 l/m 0 min 0 min 41 W/m 22,5 km/h (4 Bft) 100,00 %
04.02.2020 09:04 4,4 C 4,4 C 3,3 C 92 % 1011,9 hPa 0,0 l/m 0 min 0 min 38 W/m 16,1 km/h (3 Bft) 100,00 %
04.02.2020 09:06 4,4 C 4,4 C 3,3 C 92 % 1011,9 hPa 0,0 l/m 0 min 0 min 31 W/m 16,1 km/h (3 Bft) 100,00 %
04.02.2020 09:08 4,4 C 4,4 C 2,8 C 92 % 1012,0 hPa 0,0 l/m 0 min 0 min 29 W/m 16,1 km/h (3 Bft) 100,00 %
04.02.2020 09:10 4,4 C 4,4 C 2,8 C 92 % 1012,0 hPa 0,0 l/m 0 min 0 min 36 W/m 12,9 km/h (3 Bft) 100,00 %
04.02.2020 09:12 4,4 C 4,4 C 2,8 C 92 % 1012,0 hPa 0,0 l/m 0 min 0 min 48 W/m 12,9 km/h (3 Bft) 100,00 %
04.02.2020 09:14 4,5 C 4,4 C 3,3 C 92 % 1012,1 hPa 0,0 l/m 0 min 0 min 51 W/m 16,1 km/h (3 Bft) 100,00 %
04.02.2020 09:16 4,5 C 4,4 C 3,3 C 92 % 1012,1 hPa 0,0 l/m 0 min 0 min 54 W/m 19,3 km/h (3 Bft) 97,87 %
04.02.2020 09:18 4,5 C 4,4 C 3,3 C 92 % 1012,1 hPa 0,0 l/m 0 min 0 min 61 W/m 19,3 km/h (3 Bft) 100,00 %
04.02.2020 09:20 4,6 C 5,0 C 3,3 C 92 % 1012,2 hPa 0,0 l/m 2 min 0 min 93 W/m 19,3 km/h (3 Bft) 100,00 %
04.02.2020 09:22 4,6 C 5,0 C 3,3 C 92 % 1012,2 hPa 0,0 l/m 0 min 0 min 72 W/m 16,1 km/h (3 Bft) 100,00 %
04.02.2020 09:24 4,6 C 4,4 C 3,3 C 91 % 1012,3 hPa 0,0 l/m 0 min 2 min 55 W/m 35,4 km/h (5 Bft) 100,00 %
04.02.2020 09:26 4,7 C 3,9 C 3,3 C 91 % 1012,3 hPa 0,0 l/m 0 min 2 min 63 W/m 22,5 km/h (4 Bft) 97,83 %
04.02.2020 09:28 4,7 C 3,9 C 2,8 C 91 % 1012,3 hPa 0,0 l/m 0 min 2 min 62 W/m 22,5 km/h (4 Bft) 100,00 %
04.02.2020 09:30 4,7 C 3,9 C 2,8 C 91 % 1012,3 hPa 0,0 l/m 0 min 2 min 63 W/m 25,7 km/h (4 Bft) 100,00 %
04.02.2020 09:32 4,7 C 3,9 C 2,8 C 91 % 1012,5 hPa 0,0 l/m 0 min 2 min 71 W/m 25,7 km/h (4 Bft) 97,87 %
04.02.2020 09:34 4,7 C 3,9 C 2,8 C 92 % 1012,5 hPa 0,0 l/m 0 min 2 min 73 W/m 16,1 km/h (3 Bft) 100,00 %
04.02.2020 09:36 4,7 C 3,9 C 3,3 C 91 % 1012,6 hPa 0,0 l/m 0 min 2 min 79 W/m 16,1 km/h (3 Bft) 100,00 %
04.02.2020 09:38 4,7 C 3,9 C 2,8 C 92 % 1012,6 hPa 0,0 l/m 0 min 2 min 79 W/m 35,4 km/h (5 Bft) 100,00 %
04.02.2020 09:40 4,7 C 3,9 C 2,8 C 92 % 1012,6 hPa 0,0 l/m 0 min 2 min 75 W/m 32,2 km/h (5 Bft) 100,00 %
04.02.2020 09:42 4,6 C 3,9 C 2,8 C 92 % 1012,7 hPa 0,0 l/m 0 min 2 min 74 W/m 29,0 km/h (5 Bft) 100,00 %
04.02.2020 09:44 4,6 C 3,3 C 2,8 C 92 % 1012,8 hPa 0,0 l/m 0 min 2 min 66 W/m 25,7 km/h (4 Bft) 100,00 %
04.02.2020 09:46 4,6 C 3,3 C 2,8 C 92 % 1012,8 hPa 0,0 l/m 0 min 2 min 48 W/m 25,7 km/h (4 Bft) 100,00 %
04.02.2020 09:48 4,5 C 3,3 C 2,8 C 92 % 1012,9 hPa 0,0 l/m 0 min 2 min 53 W/m 25,7 km/h (4 Bft) 100,00 %
04.02.2020 09:50 4,4 C 2,8 C 2,8 C 92 % 1012,9 hPa 0,0 l/m 0 min 2 min 52 W/m 25,7 km/h (4 Bft) 100,00 %
04.02.2020 09:52 4,3 C 2,8 C 2,2 C 92 % 1012,9 hPa 0,0 l/m 0 min 2 min 42 W/m 19,3 km/h (3 Bft) 97,87 %
04.02.2020 09:54 4,3 C 2,8 C 2,2 C 92 % 1012,9 hPa 0,0 l/m 0 min 2 min 39 W/m 19,3 km/h (3 Bft) 100,00 %
04.02.2020 09:56 4,2 C 2,8 C 2,2 C 92 % 1013,0 hPa 0,0 l/m 0 min 2 min 36 W/m 25,7 km/h (4 Bft) 100,00 %
04.02.2020 09:58 4,2 C 2,8 C 2,2 C 92 % 1013,0 hPa 0,0 l/m 0 min 2 min 37 W/m 25,7 km/h (4 Bft) 100,00 %
04.02.2020 10:00 4,1 C 2,8 C 2,2 C 92 % 1013,1 hPa 0,0 l/m 0 min 2 min 35 W/m 29,0 km/h (5 Bft) 100,00 %
04.02.2020 10:02 4,1 C 2,8 C 2,2 C 93 % 1013,1 hPa 0,0 l/m 0 min 2 min 28 W/m 16,1 km/h (3 Bft) 100,00 %
04.02.2020 10:04 4,0 C 2,8 C 2,2 C 93 % 1013,1 hPa 0,0 l/m 0 min 2 min 25 W/m 12,9 km/h (3 Bft) 97,87 %
04.02.2020 10:06 3,9 C 2,8 C 2,2 C 93 % 1013,2 hPa 0,0 l/m 0 min 2 min 28 W/m 9,7 km/h (2 Bft) 97,87 %
04.02.2020 10:08 3,9 C 2,8 C 2,2 C 93 % 1013,2 hPa 0,0 l/m 0 min 2 min 24 W/m 16,1 km/h (3 Bft) 97,87 %
04.02.2020 10:10 3,8 C 2,8 C 2,2 C 93 % 1013,3 hPa 0,0 l/m 0 min 2 min 24 W/m 16,1 km/h (3 Bft) 95,74 %
04.02.2020 10:12 3,8 C 2,8 C 2,2 C 93 % 1013,2 hPa 0,0 l/m 0 min 2 min 30 W/m 12,9 km/h (3 Bft) 97,83 %
04.02.2020 10:14 3,8 C 2,8 C 2,2 C 93 % 1013,3 hPa 0,0 l/m 0 min 2 min 42 W/m 16,1 km/h (3 Bft) 97,87 %
04.02.2020 10:16 3,8 C 2,8 C 2,2 C 93 % 1013,2 hPa 0,0 l/m 0 min 2 min 56 W/m 9,7 km/h (2 Bft) 97,87 %
04.02.2020 10:18 3,8 C 2,8 C 2,8 C 93 % 1013,2 hPa 0,0 l/m 0 min 2 min 83 W/m 9,7 km/h (2 Bft) 97,87 %
04.02.2020 10:20 3,8 C 3,3 C 2,8 C 93 % 1013,2 hPa 0,0 l/m 0 min 2 min 94 W/m 12,9 km/h (3 Bft) 97,87 %
04.02.2020 10:22 3,8 C 3,3 C 2,8 C 94 % 1013,2 hPa 0,0 l/m 0 min 2 min 88 W/m 9,7 km/h (2 Bft) 97,87 %
04.02.2020 10:24 3,8 C 3,9 C 2,8 C 94 % 1013,2 hPa 0,0 l/m 0 min 0 min 102 W/m 12,9 km/h (3 Bft) 97,83 %
04.02.2020 10:26 3,8 C 5,0 C 2,8 C 94 % 1013,2 hPa 0,0 l/m 0 min 0 min 135 W/m 12,9 km/h (3 Bft) 95,74 %
04.02.2020 10:28 3,9 C 4,4 C 2,8 C 94 % 1013,2 hPa 0,0 l/m 0 min 0 min 98 W/m 16,1 km/h (3 Bft) 93,62 %
04.02.2020 10:30 3,9 C 3,9 C 2,8 C 94 % 1013,3 hPa 0,0 l/m 0 min 2 min 71 W/m 9,7 km/h (2 Bft) 95,74 %
04.02.2020 10:32 3,9 C 3,3 C 2,8 C 94 % 1013,4 hPa 0,2 l/m 0 min 2 min 57 W/m 12,9 km/h (3 Bft) 95,74 %
04.02.2020 10:34 3,9 C 3,3 C 2,8 C 94 % 1013,4 hPa 0,2 l/m 0 min 2 min 45 W/m 16,1 km/h (3 Bft) 95,74 %
04.02.2020 10:36 4,0 C 2,8 C 2,8 C 94 % 1013,4 hPa 0,0 l/m 0 min 2 min 32 W/m 9,7 km/h (2 Bft) 93,48 %
04.02.2020 10:38 4,0 C 2,8 C 2,8 C 94 % 1013,4 hPa 0,2 l/m 0 min 2 min 24 W/m 6,4 km/h (2 Bft) 91,49 %
04.02.2020 10:40 4,0 C 2,8 C 2,8 C 95 % 1013,4 hPa 0,2 l/m 0 min 2 min 18 W/m 6,4 km/h (2 Bft) 95,74 %
04.02.2020 10:42 4,0 C 2,8 C 2,8 C 95 % 1013,4 hPa 0,0 l/m 0 min 2 min 13 W/m 9,7 km/h (2 Bft) 95,74 %
04.02.2020 10:44 4,0 C 2,8 C 2,8 C 94 % 1013,5 hPa 0,2 l/m 0 min 2 min 10 W/m 9,7 km/h (2 Bft) 93,62 %
04.02.2020 10:46 4,0 C 2,8 C 2,8 C 94 % 1013,8 hPa 0,2 l/m 0 min 2 min 9 W/m 12,9 km/h (3 Bft) 95,65 %
04.02.2020 10:48 4,0 C 2,8 C 2,2 C 95 % 1013,8 hPa 0,0 l/m 0 min 2 min 11 W/m 19,3 km/h (3 Bft) 93,62 %
04.02.2020 10:50 4,0 C 2,8 C 2,2 C 95 % 1013,7 hPa 0,4 l/m 0 min 2 min 11 W/m 32,2 km/h (5 Bft) 95,74 %
04.02.2020 10:52 3,9 C 2,2 C 2,2 C 95 % 1013,6 hPa 0,2 l/m 0 min 2 min 15 W/m 12,9 km/h (3 Bft) 97,87 %
04.02.2020 10:54 3,9 C 2,2 C 2,2 C 95 % 1013,6 hPa 0,0 l/m 0 min 2 min 19 W/m 9,7 km/h (2 Bft) 95,74 %
04.02.2020 10:56 3,8 C 2,8 C 2,2 C 95 % 1013,6 hPa 0,0 l/m 0 min 2 min 27 W/m 12,9 km/h (3 Bft) 95,74 %
04.02.2020 10:58 3,8 C 2,8 C 2,2 C 95 % 1013,6 hPa 0,0 l/m 0 min 2 min 39 W/m 16,1 km/h (3 Bft) 95,65 %
04.02.2020 11:00 3,8 C 2,8 C 2,2 C 95 % 1013,6 hPa 0,0 l/m 0 min 0 min 47 W/m 12,9 km/h (3 Bft) 96,08 %
04.02.2020 11:02 3,8 C 2,8 C 2,2 C 95 % 1013,6 hPa 0,0 l/m 0 min 0 min 49 W/m 6,4 km/h (2 Bft) 95,74 %
04.02.2020 11:04 3,8 C 2,8 C 2,2 C 95 % 1013,7 hPa 0,0 l/m 0 min 0 min 47 W/m 9,7 km/h (2 Bft) 95,74 %
04.02.2020 11:06 3,8 C 2,8 C 2,8 C 95 % 1013,7 hPa 0,0 l/m 0 min 0 min 45 W/m 9,7 km/h (2 Bft) 95,74 %
04.02.2020 11:08 3,8 C 2,8 C 2,8 C 95 % 1013,8 hPa 0,0 l/m 0 min 0 min 46 W/m 9,7 km/h (2 Bft) 95,74 %
04.02.2020 11:10 3,8 C 2,8 C 2,8 C 95 % 1013,8 hPa 0,0 l/m 0 min 0 min 51 W/m 9,7 km/h (2 Bft) 95,65 %
04.02.2020 11:12 3,8 C 3,3 C 2,8 C 95 % 1013,8 hPa 0,0 l/m 0 min 0 min 83 W/m 9,7 km/h (2 Bft) 95,74 %
04.02.2020 11:14 3,8 C 3,9 C 2,8 C 95 % 1013,9 hPa 0,0 l/m 0 min 0 min 144 W/m 9,7 km/h (2 Bft) 93,62 %
04.02.2020 11:16 3,8 C 3,9 C 3,3 C 95 % 1013,9 hPa 0,0 l/m 2 min 2 min 186 W/m 16,1 km/h (3 Bft) 95,74 %
04.02.2020 11:18 3,9 C 3,9 C 3,3 C 96 % 1013,9 hPa 0,0 l/m 2 min 0 min 183 W/m 9,7 km/h (2 Bft) 95,74 %
04.02.2020 11:20 3,9 C 3,9 C 3,3 C 96 % 1014,0 hPa 0,0 l/m 0 min 0 min 118 W/m 12,9 km/h (3 Bft) 97,83 %
04.02.2020 11:22 4,0 C 4,4 C 3,3 C 96 % 1014,1 hPa 0,0 l/m 0 min 0 min 154 W/m 12,9 km/h (3 Bft) 97,87 %
04.02.2020 11:24 4,1 C 4,4 C 3,3 C 96 % 1014,0 hPa 0,0 l/m 0 min 0 min 160 W/m 9,7 km/h (2 Bft) 95,74 %
04.02.2020 11:26 4,1 C 4,4 C 3,3 C 96 % 1014,0 hPa 0,0 l/m 0 min 0 min 152 W/m 12,9 km/h (3 Bft) 97,87 %
04.02.2020 11:28 4,2 C 5,0 C 3,3 C 96 % 1014,1 hPa 0,0 l/m 0 min 0 min 161 W/m 16,1 km/h (3 Bft) 97,87 %
04.02.2020 11:30 4,2 C 6,1 C 3,9 C 96 % 1014,1 hPa 0,0 l/m 2 min 0 min 298 W/m 16,1 km/h (3 Bft) 97,87 %
04.02.2020 11:32 4,4 C 6,1 C 3,9 C 96 % 1014,1 hPa 0,0 l/m 2 min 0 min 305 W/m 16,1 km/h (3 Bft) 97,83 %
04.02.2020 11:34 4,5 C 5,6 C 3,9 C 96 % 1014,1 hPa 0,0 l/m 0 min 0 min 144 W/m 16,1 km/h (3 Bft) 97,87 %
04.02.2020 11:36 4,6 C 6,7 C 3,9 C 97 % 1014,2 hPa 0,0 l/m 0 min 0 min 111 W/m 9,7 km/h (2 Bft) 93,62 %
04.02.2020 11:38 4,7 C 7,2 C 3,9 C 97 % 1014,2 hPa 0,0 l/m 2 min 0 min 279 W/m 12,9 km/h (3 Bft) 97,87 %
04.02.2020 11:40 4,8 C 7,8 C 3,9 C 97 % 1014,1 hPa 0,0 l/m 2 min 0 min 286 W/m 16,1 km/h (3 Bft) 97,87 %
04.02.2020 11:42 4,9 C 7,8 C 3,9 C 97 % 1014,1 hPa 0,0 l/m 2 min 0 min 332 W/m 12,9 km/h (3 Bft) 97,87 %
04.02.2020 11:44 5,0 C 7,8 C 3,9 C 97 % 1014,1 hPa 0,0 l/m 2 min 0 min 318 W/m 16,1 km/h (3 Bft) 97,83 %
04.02.2020 11:46 5,1 C 8,9 C 4,4 C 97 % 1014,1 hPa 0,0 l/m 2 min 0 min 392 W/m 16,1 km/h (3 Bft) 97,87 %
04.02.2020 11:48 5,2 C 7,8 C 4,4 C 97 % 1014,1 hPa 0,0 l/m 2 min 0 min 371 W/m 12,9 km/h (3 Bft) 97,87 %
04.02.2020 11:50 5,3 C 7,8 C 4,4 C 97 % 1014,1 hPa 0,0 l/m 2 min 0 min 200 W/m 19,3 km/h (3 Bft) 97,87 %
04.02.2020 11:52 5,4 C 7,2 C 4,4 C 97 % 1014,1 hPa 0,0 l/m 2 min 0 min 255 W/m 12,9 km/h (3 Bft) 97,87 %
04.02.2020 11:54 5,4 C 6,7 C 3,9 C 97 % 1014,1 hPa 0,0 l/m 2 min 0 min 232 W/m 12,9 km/h (3 Bft) 93,62 %
04.02.2020 11:56 5,5 C 6,7 C 4,4 C 97 % 1014,2 hPa 0,0 l/m 2 min 0 min 217 W/m 22,5 km/h (4 Bft) 95,65 %
04.02.2020 11:58 5,5 C 6,7 C 4,4 C 97 % 1014,2 hPa 0,0 l/m 0 min 0 min 136 W/m 19,3 km/h (3 Bft) 97,87 %
04.02.2020 12:00 5,5 C 7,2 C 4,4 C 97 % 1014,3 hPa 0,0 l/m 2 min 0 min 214 W/m 12,9 km/h (3 Bft) 97,87 %
04.02.2020 12:02 5,6 C 7,2 C 4,4 C 97 % 1014,3 hPa 0,0 l/m 2 min 0 min 208 W/m 16,1 km/h (3 Bft) 97,87 %
04.02.2020 12:04 5,6 C 6,7 C 4,4 C 97 % 1014,2 hPa 0,0 l/m 2 min 0 min 203 W/m 19,3 km/h (3 Bft) 97,87 %
04.02.2020 12:06 5,6 C 6,1 C 4,4 C 96 % 1014,3 hPa 0,0 l/m 0 min 0 min 164 W/m 19,3 km/h (3 Bft) 100,00 %
04.02.2020 12:08 5,6 C 7,2 C 4,4 C 97 % 1014,3 hPa 0,0 l/m 0 min 0 min 173 W/m 19,3 km/h (3 Bft) 100,00 %
04.02.2020 12:10 5,6 C 7,2 C 4,4 C 96 % 1014,3 hPa 0,0 l/m 0 min 0 min 172 W/m 12,9 km/h (3 Bft) 100,00 %
04.02.2020 12:12 5,7 C 7,8 C 4,4 C 96 % 1014,3 hPa 0,0 l/m 2 min 0 min 245 W/m 9,7 km/h (2 Bft) 97,87 %
04.02.2020 12:14 5,7 C 7,2 C 4,4 C 96 % 1014,3 hPa 0,0 l/m 2 min 0 min 224 W/m 12,9 km/h (3 Bft) 100,00 %
04.02.2020 12:16 5,7 C 6,7 C 4,4 C 96 % 1014,3 hPa 0,0 l/m 0 min 0 min 131 W/m 12,9 km/h (3 Bft) 100,00 %
04.02.2020 12:18 5,8 C 6,1 C 4,4 C 96 % 1014,3 hPa 0,0 l/m 0 min 0 min 92 W/m 16,1 km/h (3 Bft) 97,83 %
04.02.2020 12:20 5,7 C 6,7 C 4,4 C 96 % 1014,4 hPa 0,0 l/m 0 min 0 min 145 W/m 12,9 km/h (3 Bft) 100,00 %
04.02.2020 12:22 5,7 C 6,7 C 4,4 C 96 % 1014,3 hPa 0,0 l/m 0 min 0 min 177 W/m 12,9 km/h (3 Bft) 100,00 %
04.02.2020 12:24 5,7 C 7,8 C 4,4 C 96 % 1014,3 hPa 0,0 l/m 2 min 0 min 200 W/m 16,1 km/h (3 Bft) 95,74 %
04.02.2020 12:26 5,8 C 7,2 C 4,4 C 96 % 1014,3 hPa 0,0 l/m 0 min 0 min 189 W/m 16,1 km/h (3 Bft) 89,36 %
04.02.2020 12:28 5,8 C 6,7 C 4,4 C 95 % 1014,3 hPa 0,0 l/m 0 min 0 min 167 W/m 12,9 km/h (3 Bft) 93,62 %
04.02.2020 12:30 5,8 C 6,1 C 4,4 C 95 % 1014,3 hPa 0,0 l/m 0 min 0 min 126 W/m 35,4 km/h (5 Bft) 97,83 %
04.02.2020 12:32 5,8 C 6,1 C 4,4 C 95 % 1014,3 hPa 0,0 l/m 0 min 0 min 126 W/m 19,3 km/h (3 Bft) 97,87 %
04.02.2020 12:34 5,8 C 6,1 C 4,4 C 95 % 1014,4 hPa 0,0 l/m 0 min 0 min 118 W/m 19,3 km/h (3 Bft) 97,87 %
04.02.2020 12:36 5,8 C 6,1 C 4,4 C 95 % 1014,4 hPa 0,0 l/m 0 min 0 min 133 W/m 22,5 km/h (4 Bft) 97,87 %
04.02.2020 12:38 5,8 C 6,1 C 4,4 C 94 % 1014,3 hPa 0,0 l/m 0 min 0 min 128 W/m 19,3 km/h (3 Bft) 97,87 %
04.02.2020 12:40 5,8 C 6,1 C 4,4 C 94 % 1014,3 hPa 0,0 l/m 0 min 0 min 125 W/m 12,9 km/h (3 Bft) 97,87 %
04.02.2020 12:42 5,8 C 6,1 C 4,4 C 94 % 1014,4 hPa 0,0 l/m 0 min 0 min 108 W/m 6,4 km/h (2 Bft) 93,48 %
04.02.2020 12:44 5,8 C 5,6 C 4,4 C 94 % 1014,4 hPa 0,0 l/m 0 min 0 min 88 W/m 12,9 km/h (3 Bft) 95,74 %
04.02.2020 12:46 5,8 C 5,6 C 4,4 C 94 % 1014,4 hPa 0,0 l/m 0 min 0 min 82 W/m 16,1 km/h (3 Bft) 97,87 %
04.02.2020 12:48 5,8 C 5,6 C 4,4 C 94 % 1014,4 hPa 0,0 l/m 0 min 0 min 78 W/m 16,1 km/h (3 Bft) 97,87 %
04.02.2020 12:50 5,8 C 5,6 C 4,4 C 94 % 1014,4 hPa 0,0 l/m 0 min 0 min 83 W/m 12,9 km/h (3 Bft) 97,87 %
04.02.2020 12:52 5,8 C 5,6 C 4,4 C 93 % 1014,4 hPa 0,0 l/m 0 min 0 min 112 W/m 9,7 km/h (2 Bft) 95,65 %
04.02.2020 12:54 5,8 C 8,3 C 5,0 C 93 % 1014,4 hPa 0,0 l/m 0 min 0 min 168 W/m 6,4 km/h (2 Bft) 97,87 %
04.02.2020 12:56 5,8 C 10,0 C 5,6 C 93 % 1014,5 hPa 0,0 l/m 2 min 0 min 487 W/m 16,1 km/h (3 Bft) 95,74 %
04.02.2020 12:58 5,9 C 11,1 C 5,6 C 94 % 1014,5 hPa 0,0 l/m 2 min 0 min 519 W/m 16,1 km/h (3 Bft) 97,87 %
04.02.2020 13:00 6,1 C 11,7 C 6,1 C 94 % 1014,5 hPa 0,0 l/m 2 min 0 min 520 W/m 22,5 km/h (4 Bft) 95,74 %
04.02.2020 13:02 6,3 C 10,6 C 5,6 C 94 % 1014,5 hPa 0,0 l/m 2 min 0 min 467 W/m 22,5 km/h (4 Bft) 97,87 %
04.02.2020 13:04 6,3 C 8,9 C 5,0 C 93 % 1014,5 hPa 0,0 l/m 0 min 0 min 136 W/m 9,7 km/h (2 Bft) 100,00 %
04.02.2020 13:06 6,4 C 7,2 C 5,0 C 93 % 1014,6 hPa 0,0 l/m 0 min 0 min 106 W/m 22,5 km/h (4 Bft) 100,00 %
04.02.2020 13:08 6,4 C 6,7 C 5,0 C 92 % 1014,6 hPa 0,0 l/m 0 min 0 min 92 W/m 22,5 km/h (4 Bft) 100,00 %
04.02.2020 13:10 6,4 C 6,1 C 4,4 C 92 % 1014,6 hPa 0,0 l/m 0 min 0 min 84 W/m 19,3 km/h (3 Bft) 97,87 %
04.02.2020 13:12 6,4 C 6,7 C 5,0 C 92 % 1014,6 hPa 0,0 l/m 0 min 0 min 131 W/m 12,9 km/h (3 Bft) 97,87 %
04.02.2020 13:14 6,4 C 7,2 C 5,0 C 91 % 1014,6 hPa 0,0 l/m 2 min 0 min 216 W/m 16,1 km/h (3 Bft) 95,74 %
04.02.2020 13:16 6,5 C 8,9 C 5,6 C 91 % 1014,6 hPa 0,0 l/m 2 min 0 min 230 W/m 9,7 km/h (2 Bft) 97,83 %
04.02.2020 13:18 6,5 C 8,3 C 5,6 C 91 % 1014,7 hPa 0,0 l/m 2 min 0 min 253 W/m 16,1 km/h (3 Bft) 97,87 %
04.02.2020 13:20 6,6 C 7,8 C 5,0 C 91 % 1014,6 hPa 0,0 l/m 0 min 0 min 183 W/m 19,3 km/h (3 Bft) 97,87 %
04.02.2020 13:22 6,6 C 7,2 C 5,0 C 90 % 1014,7 hPa 0,0 l/m 0 min 0 min 118 W/m 22,5 km/h (4 Bft) 97,87 %
04.02.2020 13:24 6,6 C 6,7 C 4,4 C 90 % 1014,7 hPa 0,0 l/m 0 min 0 min 73 W/m 25,7 km/h (4 Bft) 97,87 %
04.02.2020 13:26 6,6 C 5,6 C 4,4 C 89 % 1014,7 hPa 0,0 l/m 0 min 2 min 74 W/m 25,7 km/h (4 Bft) 97,87 %
04.02.2020 13:28 6,5 C 5,0 C 3,9 C 89 % 1014,7 hPa 0,2 l/m 0 min 2 min 104 W/m 19,3 km/h (3 Bft) 95,65 %
04.02.2020 13:30 6,4 C 5,0 C 4,4 C 89 % 1014,7 hPa 0,0 l/m 0 min 2 min 119 W/m 29,0 km/h (5 Bft) 93,62 %
04.02.2020 13:32 6,4 C 5,0 C 3,9 C 89 % 1014,8 hPa 0,0 l/m 0 min 2 min 81 W/m 29,0 km/h (5 Bft) 97,87 %
04.02.2020 13:34 6,3 C 5,0 C 3,9 C 88 % 1014,8 hPa 0,0 l/m 0 min 0 min 76 W/m 16,1 km/h (3 Bft) 97,87 %
04.02.2020 13:36 6,3 C 5,0 C 3,9 C 88 % 1014,9 hPa 0,0 l/m 0 min 2 min 66 W/m 19,3 km/h (3 Bft) 97,87 %
04.02.2020 13:38 6,2 C 4,4 C 3,9 C 88 % 1014,8 hPa 0,0 l/m 0 min 2 min 51 W/m 19,3 km/h (3 Bft) 95,74 %
04.02.2020 13:40 6,1 C 4,4 C 3,3 C 88 % 1014,8 hPa 0,0 l/m 0 min 2 min 43 W/m 16,1 km/h (3 Bft) 97,83 %
04.02.2020 13:42 6,1 C 3,9 C 3,3 C 88 % 1014,9 hPa 0,0 l/m 0 min 2 min 49 W/m 19,3 km/h (3 Bft) 97,87 %
04.02.2020 13:44 5,9 C 4,4 C 3,3 C 89 % 1014,9 hPa 0,0 l/m 0 min 2 min 73 W/m 19,3 km/h (3 Bft) 95,74 %
04.02.2020 13:46 5,9 C 4,4 C 3,9 C 89 % 1014,9 hPa 0,0 l/m 0 min 2 min 99 W/m 16,1 km/h (3 Bft) 97,87 %
04.02.2020 13:48 5,8 C 5,0 C 3,9 C 89 % 1014,9 hPa 0,0 l/m 0 min 2 min 147 W/m 16,1 km/h (3 Bft) 97,87 %
04.02.2020 13:50 5,8 C 5,0 C 3,9 C 90 % 1015,0 hPa 0,0 l/m 0 min 2 min 146 W/m 16,1 km/h (3 Bft) 97,83 %
04.02.2020 13:52 5,8 C 6,1 C 4,4 C 90 % 1014,9 hPa 0,0 l/m 2 min 2 min 199 W/m 12,9 km/h (3 Bft) 97,87 %
04.02.2020 13:54 5,8 C 6,1 C 4,4 C 90 % 1014,9 hPa 0,0 l/m 2 min 2 min 231 W/m 12,9 km/h (3 Bft) 97,87 %
04.02.2020 13:56 5,9 C 7,2 C 4,4 C 90 % 1014,9 hPa 0,0 l/m 2 min 2 min 265 W/m 12,9 km/h (3 Bft) 97,87 %
04.02.2020 13:58 5,9 C 7,8 C 5,0 C 91 % 1014,9 hPa 0,0 l/m 2 min 0 min 291 W/m 19,3 km/h (3 Bft) 100,00 %
04.02.2020 14:00 6,1 C 8,3 C 5,0 C 91 % 1015,0 hPa 0,0 l/m 2 min 2 min 245 W/m 22,5 km/h (4 Bft) 100,00 %
04.02.2020 14:02 6,1 C 8,9 C 5,0 C 91 % 1015,0 hPa 0,0 l/m 2 min 2 min 283 W/m 16,1 km/h (3 Bft) 100,00 %
04.02.2020 14:04 6,2 C 8,3 C 5,0 C 91 % 1015,0 hPa 0,0 l/m 2 min 0 min 186 W/m 16,1 km/h (3 Bft) 100,00 %
04.02.2020 14:06 6,2 C 7,8 C 5,0 C 91 % 1015,0 hPa 0,0 l/m 0 min 0 min 150 W/m 16,1 km/h (3 Bft) 100,00 %
04.02.2020 14:08 6,3 C 7,2 C 5,0 C 91 % 1015,0 hPa 0,0 l/m 0 min 2 min 95 W/m 16,1 km/h (3 Bft) 100,00 %
04.02.2020 14:10 6,3 C 6,7 C 4,4 C 91 % 1015,1 hPa 0,0 l/m 0 min 2 min 68 W/m 19,3 km/h (3 Bft) 100,00 %
04.02.2020 14:12 6,3 C 6,1 C 4,4 C 91 % 1015,1 hPa 0,0 l/m 0 min 2 min 53 W/m 22,5 km/h (4 Bft) 95,74 %
04.02.2020 14:14 6,3 C 6,1 C 4,4 C 90 % 1015,1 hPa 0,0 l/m 0 min 0 min 48 W/m 29,0 km/h (5 Bft) 100,00 %
04.02.2020 14:16 6,3 C 5,6 C 3,9 C 90 % 1015,1 hPa 0,0 l/m 0 min 2 min 44 W/m 22,5 km/h (4 Bft) 100,00 %
04.02.2020 14:18 6,2 C 5,6 C 3,9 C 89 % 1015,1 hPa 0,0 l/m 0 min 2 min 56 W/m 19,3 km/h (3 Bft) 100,00 %
04.02.2020 14:20 6,2 C 5,6 C 3,9 C 89 % 1015,1 hPa 0,0 l/m 0 min 0 min 65 W/m 25,7 km/h (4 Bft) 97,87 %
04.02.2020 14:22 6,2 C 5,6 C 3,9 C 89 % 1015,1 hPa 0,0 l/m 0 min 0 min 84 W/m 16,1 km/h (3 Bft) 97,87 %
04.02.2020 14:24 6,2 C 5,6 C 4,4 C 89 % 1015,2 hPa 0,0 l/m 0 min 0 min 97 W/m 16,1 km/h (3 Bft) 97,87 %
04.02.2020 14:26 6,1 C 5,6 C 4,4 C 89 % 1015,2 hPa 0,0 l/m 0 min 0 min 96 W/m 16,1 km/h (3 Bft) 100,00 %
04.02.2020 14:28 6,1 C 5,6 C 4,4 C 89 % 1015,3 hPa 0,0 l/m 0 min 0 min 95 W/m 12,9 km/h (3 Bft) 100,00 %
04.02.2020 14:30 6,1 C 5,6 C 4,4 C 89 % 1015,2 hPa 0,0 l/m 0 min 0 min 96 W/m 25,7 km/h (4 Bft) 97,87 %
04.02.2020 14:32 6,1 C 5,6 C 4,4 C 89 % 1015,2 hPa 0,0 l/m 0 min 0 min 102 W/m 19,3 km/h (3 Bft) 97,87 %
04.02.2020 14:34 6,1 C 5,6 C 4,4 C 89 % 1015,3 hPa 0,0 l/m 0 min 0 min 111 W/m 25,7 km/h (4 Bft) 100,00 %
04.02.2020 14:36 6,1 C 5,6 C 4,4 C 89 % 1015,3 hPa 0,0 l/m 0 min 0 min 113 W/m 22,5 km/h (4 Bft) 100,00 %
04.02.2020 14:38 6,1 C 5,6 C 4,4 C 89 % 1015,4 hPa 0,0 l/m 0 min 0 min 102 W/m 25,7 km/h (4 Bft) 100,00 %
04.02.2020 14:40 6,0 C 5,6 C 4,4 C 89 % 1015,4 hPa 0,0 l/m 0 min 0 min 81 W/m 22,5 km/h (4 Bft) 95,74 %
04.02.2020 14:42 6,0 C 5,6 C 4,4 C 89 % 1015,4 hPa 0,0 l/m 0 min 0 min 79 W/m 16,1 km/h (3 Bft) 97,87 %
04.02.2020 14:44 5,9 C 5,6 C 4,4 C 89 % 1015,4 hPa 0,0 l/m 0 min 0 min 84 W/m 9,7 km/h (2 Bft) 95,74 %
04.02.2020 14:46 5,9 C 5,6 C 4,4 C 89 % 1015,4 hPa 0,0 l/m 0 min 0 min 85 W/m 16,1 km/h (3 Bft) 97,87 %
04.02.2020 14:48 5,9 C 5,6 C 4,4 C 89 % 1015,4 hPa 0,0 l/m 0 min 0 min 90 W/m 19,3 km/h (3 Bft) 97,87 %
04.02.2020 14:50 5,9 C 5,6 C 4,4 C 89 % 1015,4 hPa 0,0 l/m 0 min 0 min 95 W/m 16,1 km/h (3 Bft) 95,65 %
04.02.2020 14:52 5,9 C 5,6 C 4,4 C 89 % 1015,3 hPa 0,0 l/m 0 min 0 min 89 W/m 16,1 km/h (3 Bft) 93,62 %
04.02.2020 14:54 5,9 C 5,6 C 4,4 C 89 % 1015,5 hPa 0,0 l/m 0 min 0 min 75 W/m 19,3 km/h (3 Bft) 95,74 %
04.02.2020 14:56 5,9 C 5,6 C 4,4 C 90 % 1015,6 hPa 0,0 l/m 0 min 0 min 60 W/m 12,9 km/h (3 Bft) 93,62 %
04.02.2020 14:58 5,9 C 5,6 C 4,4 C 90 % 1015,6 hPa 0,0 l/m 0 min 0 min 55 W/m 19,3 km/h (3 Bft) 95,74 %
04.02.2020 15:00 5,8 C 5,6 C 4,4 C 90 % 1015,5 hPa 0,0 l/m 0 min 0 min 57 W/m 25,7 km/h (4 Bft) 95,65 %
04.02.2020 15:02 5,8 C 5,6 C 4,4 C 90 % 1015,6 hPa 0,0 l/m 0 min 0 min 66 W/m 16,1 km/h (3 Bft) 91,49 %
04.02.2020 15:04 5,8 C 5,6 C 4,4 C 90 % 1015,5 hPa 0,0 l/m 0 min 0 min 66 W/m 19,3 km/h (3 Bft) 93,62 %
04.02.2020 15:06 5,8 C 5,6 C 4,4 C 90 % 1015,5 hPa 0,0 l/m 0 min 0 min 69 W/m 16,1 km/h (3 Bft) 93,62 %
04.02.2020 15:08 5,8 C 5,6 C 4,4 C 90 % 1015,6 hPa 0,0 l/m 0 min 0 min 77 W/m 19,3 km/h (3 Bft) 95,74 %
04.02.2020 15:10 5,8 C 5,6 C 4,4 C 90 % 1015,6 hPa 0,0 l/m 0 min 0 min 73 W/m 19,3 km/h (3 Bft) 93,62 %
04.02.2020 15:12 5,8 C 5,6 C 4,4 C 90 % 1015,5 hPa 0,0 l/m 0 min 0 min 58 W/m 9,7 km/h (2 Bft) 91,30 %
04.02.2020 15:14 5,8 C 5,0 C 4,4 C 90 % 1015,6 hPa 0,0 l/m 0 min 2 min 58 W/m 19,3 km/h (3 Bft) 93,62 %
04.02.2020 15:16 5,8 C 5,0 C 3,9 C 90 % 1015,6 hPa 0,0 l/m 0 min 2 min 54 W/m 16,1 km/h (3 Bft) 93,62 %
04.02.2020 15:18 5,8 C 5,0 C 3,9 C 90 % 1015,7 hPa 0,0 l/m 0 min 2 min 59 W/m 19,3 km/h (3 Bft) 93,62 %
04.02.2020 15:20 5,8 C 5,0 C 3,9 C 91 % 1015,7 hPa 0,0 l/m 0 min 2 min 47 W/m 19,3 km/h (3 Bft) 91,49 %
04.02.2020 15:22 5,8 C 5,0 C 3,9 C 91 % 1015,8 hPa 0,0 l/m 0 min 2 min 39 W/m 29,0 km/h (5 Bft) 95,74 %
04.02.2020 15:24 5,7 C 4,4 C 3,9 C 91 % 1015,9 hPa 0,0 l/m 0 min 2 min 31 W/m 25,7 km/h (4 Bft) 93,48 %
04.02.2020 15:26 5,7 C 4,4 C 3,9 C 91 % 1015,9 hPa 0,2 l/m 0 min 2 min 30 W/m 32,2 km/h (5 Bft) 97,87 %
04.02.2020 15:28 5,7 C 4,4 C 3,3 C 91 % 1016,1 hPa 0,0 l/m 0 min 2 min 40 W/m 22,5 km/h (4 Bft) 95,74 %
04.02.2020 15:30 5,6 C 4,4 C 3,9 C 91 % 1016,1 hPa 0,0 l/m 0 min 2 min 70 W/m 29,0 km/h (5 Bft) 97,87 %
04.02.2020 15:32 5,6 C 4,4 C 3,9 C 92 % 1016,0 hPa 0,0 l/m 0 min 2 min 92 W/m 16,1 km/h (3 Bft) 97,87 %
04.02.2020 15:34 5,6 C 4,4 C 3,9 C 92 % 1016,1 hPa 0,0 l/m 0 min 2 min 99 W/m 22,5 km/h (4 Bft) 95,74 %
04.02.2020 15:36 5,5 C 4,4 C 3,9 C 92 % 1016,1 hPa 0,0 l/m 0 min 2 min 84 W/m 16,1 km/h (3 Bft) 97,83 %
04.02.2020 15:38 5,5 C 4,4 C 3,9 C 92 % 1016,1 hPa 0,0 l/m 0 min 2 min 70 W/m 16,1 km/h (3 Bft) 95,74 %
04.02.2020 15:40 5,5 C 4,4 C 3,9 C 93 % 1016,1 hPa 0,0 l/m 0 min 2 min 68 W/m 16,1 km/h (3 Bft) 100,00 %
04.02.2020 15:42 5,5 C 4,4 C 3,9 C 93 % 1016,2 hPa 0,0 l/m 0 min 2 min 76 W/m 19,3 km/h (3 Bft) 100,00 %
04.02.2020 15:44 5,5 C 4,4 C 3,9 C 93 % 1016,2 hPa 0,0 l/m 0 min 2 min 80 W/m 16,1 km/h (3 Bft) 100,00 %
04.02.2020 15:46 5,5 C 4,4 C 3,9 C 93 % 1016,2 hPa 0,0 l/m 0 min 2 min 76 W/m 19,3 km/h (3 Bft) 100,00 %
04.02.2020 15:48 5,4 C 4,4 C 3,9 C 93 % 1016,2 hPa 0,0 l/m 0 min 2 min 68 W/m 12,9 km/h (3 Bft) 97,83 %
04.02.2020 15:50 5,4 C 4,4 C 3,9 C 93 % 1016,2 hPa 0,0 l/m 0 min 2 min 60 W/m 16,1 km/h (3 Bft) 100,00 %
04.02.2020 15:52 5,4 C 4,4 C 3,9 C 93 % 1016,3 hPa 0,0 l/m 0 min 0 min 54 W/m 12,9 km/h (3 Bft) 100,00 %
04.02.2020 15:54 5,4 C 4,4 C 3,9 C 93 % 1016,3 hPa 0,0 l/m 0 min 0 min 47 W/m 16,1 km/h (3 Bft) 100,00 %
04.02.2020 15:56 5,4 C 4,4 C 3,9 C 93 % 1016,4 hPa 0,0 l/m 0 min 2 min 46 W/m 12,9 km/h (3 Bft) 100,00 %
04.02.2020 15:58 5,4 C 4,4 C 3,9 C 93 % 1016,4 hPa 0,0 l/m 0 min 0 min 47 W/m 9,7 km/h (2 Bft) 100,00 %
04.02.2020 16:00 5,4 C 4,4 C 3,9 C 94 % 1016,4 hPa 0,0 l/m 0 min 2 min 44 W/m 19,3 km/h (3 Bft) 100,00 %
04.02.2020 16:02 5,4 C 4,4 C 3,9 C 94 % 1016,5 hPa 0,0 l/m 0 min 2 min 38 W/m 12,9 km/h (3 Bft) 100,00 %
04.02.2020 16:04 5,4 C 4,4 C 3,9 C 94 % 1016,6 hPa 0,0 l/m 0 min 2 min 28 W/m 16,1 km/h (3 Bft) 97,87 %
04.02.2020 16:06 5,4 C 4,4 C 3,9 C 94 % 1016,6 hPa 0,0 l/m 0 min 0 min 27 W/m 12,9 km/h (3 Bft) 97,87 %
04.02.2020 16:08 5,4 C 4,4 C 3,9 C 94 % 1016,6 hPa 0,0 l/m 0 min 0 min 34 W/m 16,1 km/h (3 Bft) 97,87 %
04.02.2020 16:10 5,4 C 4,4 C 3,9 C 94 % 1016,6 hPa 0,0 l/m 0 min 0 min 34 W/m 12,9 km/h (3 Bft) 97,83 %
04.02.2020 16:12 5,3 C 4,4 C 3,9 C 94 % 1016,6 hPa 0,0 l/m 0 min 2 min 33 W/m 22,5 km/h (4 Bft) 97,87 %
04.02.2020 16:14 5,3 C 4,4 C 3,9 C 94 % 1016,6 hPa 0,0 l/m 0 min 2 min 33 W/m 9,7 km/h (2 Bft) 97,87 %
04.02.2020 16:16 5,3 C 4,4 C 3,9 C 94 % 1016,7 hPa 0,0 l/m 0 min 0 min 30 W/m 16,1 km/h (3 Bft) 100,00 %
04.02.2020 16:18 5,3 C 4,4 C 3,9 C 94 % 1016,7 hPa 0,0 l/m 0 min 0 min 26 W/m 12,9 km/h (3 Bft) 97,87 %
04.02.2020 16:20 5,3 C 4,4 C 3,9 C 94 % 1016,8 hPa 0,0 l/m 0 min 0 min 22 W/m 12,9 km/h (3 Bft) 100,00 %
04.02.2020 16:22 5,3 C 4,4 C 3,9 C 94 % 1016,9 hPa 0,0 l/m 0 min 0 min 20 W/m 6,4 km/h (2 Bft) 95,65 %
04.02.2020 16:24 5,3 C 4,4 C 3,9 C 94 % 1016,9 hPa 0,0 l/m 0 min 2 min 16 W/m 19,3 km/h (3 Bft) 95,74 %
04.02.2020 16:26 5,3 C 4,4 C 3,9 C 94 % 1016,9 hPa 0,0 l/m 0 min 2 min 13 W/m 16,1 km/h (3 Bft) 97,87 %
04.02.2020 16:28 5,3 C 4,4 C 3,9 C 94 % 1016,9 hPa 0,0 l/m 0 min 2 min 11 W/m 16,1 km/h (3 Bft) 89,36 %
04.02.2020 16:30 5,3 C 4,4 C 3,9 C 94 % 1016,9 hPa 0,0 l/m 0 min 2 min 9 W/m 12,9 km/h (3 Bft) 95,74 %
04.02.2020 16:32 5,3 C 4,4 C 3,9 C 94 % 1016,9 hPa 0,0 l/m 0 min 2 min 9 W/m 6,4 km/h (2 Bft) 50,00 %
04.02.2020 16:34 5,3 C 3,9 C 3,3 C 94 % 1016,9 hPa 0,0 l/m 0 min 2 min 9 W/m 12,9 km/h (3 Bft) 95,65 %
04.02.2020 16:36 5,3 C 3,9 C 3,3 C 94 % 1016,9 hPa 0,0 l/m 0 min 2 min 9 W/m 9,7 km/h (2 Bft) 95,74 %
04.02.2020 16:38 5,3 C 3,9 C 3,3 C 94 % 1016,9 hPa 0,2 l/m 0 min 2 min 11 W/m 9,7 km/h (2 Bft) 93,62 %
04.02.2020 16:40 5,3 C 3,9 C 3,3 C 94 % 1017,0 hPa 0,0 l/m 0 min 2 min 11 W/m 12,9 km/h (3 Bft) 97,87 %
04.02.2020 16:42 5,2 C 3,9 C 3,3 C 94 % 1017,1 hPa 0,0 l/m 0 min 2 min 9 W/m 16,1 km/h (3 Bft) 97,87 %
04.02.2020 16:44 5,2 C 3,9 C 3,3 C 94 % 1017,1 hPa 0,0 l/m 0 min 2 min 9 W/m 9,7 km/h (2 Bft) 97,87 %
04.02.2020 16:46 5,2 C 3,9 C 3,3 C 94 % 1017,1 hPa 0,0 l/m 0 min 2 min 9 W/m 9,7 km/h (2 Bft) 95,65 %
04.02.2020 16:48 5,2 C 3,9 C 3,3 C 94 % 1017,1 hPa 0,0 l/m 0 min 2 min 7 W/m 9,7 km/h (2 Bft) 97,87 %
04.02.2020 16:50 5,2 C 3,9 C 3,3 C 94 % 1017,2 hPa 0,0 l/m 0 min 2 min 5 W/m 12,9 km/h (3 Bft) 97,87 %
04.02.2020 16:52 5,2 C 3,9 C 3,3 C 94 % 1017,3 hPa 0,0 l/m 0 min 2 min 5 W/m 16,1 km/h (3 Bft) 97,62 %
04.02.2020 16:54 5,2 C 3,9 C 3,3 C 95 % 1017,3 hPa 0,0 l/m 0 min 2 min 3 W/m 12,9 km/h (3 Bft) 95,74 %
04.02.2020 16:56 5,2 C 3,9 C 3,3 C 95 % 1017,3 hPa 0,2 l/m 0 min 2 min 0 W/m 16,1 km/h (3 Bft) 97,87 %
04.02.2020 16:58 5,2 C 3,9 C 3,3 C 95 % 1017,4 hPa 0,0 l/m 0 min 2 min 0 W/m 9,7 km/h (2 Bft) 97,83 %
04.02.2020 17:00 5,1 C 3,9 C 3,3 C 95 % 1017,5 hPa 0,0 l/m 0 min 2 min 0 W/m 6,4 km/h (2 Bft) 95,74 %
04.02.2020 17:02 5,1 C 3,9 C 3,3 C 95 % 1017,6 hPa 0,0 l/m 0 min 2 min 0 W/m 6,4 km/h (2 Bft) 97,87 %
04.02.2020 17:04 5,1 C 3,9 C 3,3 C 95 % 1017,6 hPa 0,0 l/m 0 min 2 min 0 W/m 12,9 km/h (3 Bft) 93,62 %
04.02.2020 17:06 5,1 C 3,9 C 3,3 C 95 % 1017,7 hPa 0,2 l/m 0 min 2 min 0 W/m 12,9 km/h (3 Bft) 95,74 %
04.02.2020 17:08 5,1 C 3,9 C 3,3 C 95 % 1017,6 hPa 0,0 l/m 0 min 2 min 0 W/m 12,9 km/h (3 Bft) 95,74 %
04.02.2020 17:10 5,1 C 3,9 C 3,3 C 95 % 1017,6 hPa 0,0 l/m 0 min 2 min 0 W/m 12,9 km/h (3 Bft) 95,65 %
04.02.2020 17:12 5,1 C 3,9 C 3,3 C 95 % 1017,7 hPa 0,2 l/m 0 min 2 min 4 W/m 9,7 km/h (2 Bft) 95,74 %
04.02.2020 17:14 5,1 C 3,9 C 3,3 C 95 % 1017,8 hPa 0,0 l/m 0 min 2 min 0 W/m 12,9 km/h (3 Bft) 95,74 %
04.02.2020 17:16 5,1 C 3,9 C 3,3 C 95 % 1017,8 hPa 0,0 l/m 0 min 2 min 0 W/m 9,7 km/h (2 Bft) 95,74 %
04.02.2020 17:18 5,1 C 3,9 C 3,3 C 95 % 1017,8 hPa 0,0 l/m 0 min 2 min 0 W/m 9,7 km/h (2 Bft) 93,62 %
04.02.2020 17:20 5,1 C 3,9 C 3,3 C 95 % 1017,8 hPa 0,0 l/m 0 min 2 min 0 W/m 9,7 km/h (2 Bft) 95,74 %
04.02.2020 17:22 5,1 C 3,9 C 3,3 C 95 % 1018,0 hPa 0,0 l/m 0 min 2 min 0 W/m 9,7 km/h (2 Bft) 97,83 %
04.02.2020 17:24 5,1 C 3,9 C 3,3 C 95 % 1018,1 hPa 0,2 l/m 0 min 2 min 0 W/m 16,1 km/h (3 Bft) 95,74 %
04.02.2020 17:26 5,1 C 3,9 C 3,3 C 95 % 1018,2 hPa 0,0 l/m 0 min 2 min 0 W/m 12,9 km/h (3 Bft) 95,74 %
04.02.2020 17:28 5,1 C 3,9 C 3,3 C 95 % 1018,3 hPa 0,0 l/m 0 min 2 min 0 W/m 16,1 km/h (3 Bft) 95,74 %
04.02.2020 17:30 5,0 C 3,9 C 3,3 C 95 % 1018,3 hPa 0,0 l/m 0 min 0 min 0 W/m 16,1 km/h (3 Bft) 97,87 %
04.02.2020 17:32 5,0 C 3,9 C 3,3 C 95 % 1018,3 hPa 0,0 l/m 0 min 0 min 0 W/m 16,1 km/h (3 Bft) 95,74 %
04.02.2020 17:34 4,9 C 3,9 C 3,3 C 95 % 1018,4 hPa 0,0 l/m 0 min 0 min 0 W/m 12,9 km/h (3 Bft) 97,83 %
04.02.2020 17:36 4,9 C 3,3 C 3,3 C 95 % 1018,4 hPa 0,0 l/m 0 min 2 min 0 W/m 12,9 km/h (3 Bft) 97,87 %
04.02.2020 17:38 4,9 C 3,3 C 3,3 C 95 % 1018,5 hPa 0,0 l/m 0 min 2 min 0 W/m 12,9 km/h (3 Bft) 93,62 %
04.02.2020 17:40 4,8 C 3,3 C 3,3 C 96 % 1018,5 hPa 0,0 l/m 0 min 2 min 0 W/m 9,7 km/h (2 Bft) 91,49 %
04.02.2020 17:42 4,8 C 3,3 C 3,3 C 96 % 1018,6 hPa 0,0 l/m 0 min 2 min 0 W/m 16,1 km/h (3 Bft) 95,74 %
04.02.2020 17:44 4,7 C 3,3 C 3,3 C 96 % 1018,6 hPa 0,0 l/m 0 min 2 min 0 W/m 6,4 km/h (2 Bft) 95,65 %
04.02.2020 17:46 4,7 C 3,3 C 3,3 C 96 % 1018,6 hPa 0,0 l/m 0 min 2 min 0 W/m 6,4 km/h (2 Bft) 95,74 %
04.02.2020 17:48 4,7 C 3,3 C 3,3 C 96 % 1018,7 hPa 0,0 l/m 0 min 2 min 0 W/m 9,7 km/h (2 Bft) 89,36 %
04.02.2020 17:50 4,7 C 3,3 C 3,3 C 96 % 1018,8 hPa 0,0 l/m 0 min 2 min 0 W/m 6,4 km/h (2 Bft) 91,49 %
04.02.2020 17:52 4,6 C 3,3 C 2,8 C 96 % 1018,8 hPa 0,0 l/m 0 min 2 min 0 W/m 6,4 km/h (2 Bft) 95,74 %
04.02.2020 17:54 4,6 C 3,3 C 2,8 C 96 % 1018,8 hPa 0,0 l/m 0 min 2 min 0 W/m 6,4 km/h (2 Bft) 95,74 %
04.02.2020 17:56 4,6 C 3,3 C 2,8 C 96 % 1018,7 hPa 0,0 l/m 0 min 2 min 0 W/m 9,7 km/h (2 Bft) 93,48 %
04.02.2020 17:58 4,6 C 3,3 C 2,8 C 96 % 1018,7 hPa 0,2 l/m 0 min 2 min 0 W/m 3,2 km/h (1 Bft) 94,00 %
04.02.2020 18:00 4,6 C 2,8 C 2,8 C 96 % 1018,9 hPa 0,0 l/m 0 min 2 min 0 W/m 0,0 km/h (0 Bft) 93,62 %
04.02.2020 18:02 4,5 C 2,8 C 2,8 C 96 % 1019,0 hPa 0,0 l/m 0 min 2 min 0 W/m 6,4 km/h (2 Bft) 87,23 %
04.02.2020 18:04 4,5 C 2,8 C 2,8 C 96 % 1019,1 hPa 0,0 l/m 0 min 0 min 0 W/m 6,4 km/h (2 Bft) 93,62 %
04.02.2020 18:08 4,4 C 2,8 C 2,8 C 96 % 1019,3 hPa 0,0 l/m 0 min 0 min 0 W/m 6,4 km/h (2 Bft) 94,05 %
04.02.2020 18:10 4,4 C 2,8 C 2,8 C 96 % 1019,2 hPa 0,0 l/m 0 min 0 min 0 W/m 6,4 km/h (2 Bft) 93,62 %
04.02.2020 18:12 4,3 C 2,8 C 2,2 C 96 % 1019,3 hPa 0,0 l/m 0 min 0 min 0 W/m 3,2 km/h (1 Bft) 95,74 %
04.02.2020 18:14 4,3 C 2,2 C 2,2 C 96 % 1019,3 hPa 0,0 l/m 0 min 0 min 0 W/m 3,2 km/h (1 Bft) 95,74 %
04.02.2020 18:16 4,3 C 2,2 C 2,2 C 96 % 1019,4 hPa 0,0 l/m 0 min 0 min 0 W/m 3,2 km/h (1 Bft) 97,87 %
04.02.2020 18:18 4,3 C 2,2 C 2,2 C 96 % 1019,4 hPa 0,0 l/m 0 min 0 min 0 W/m 0,0 km/h (0 Bft) 95,65 %
04.02.2020 18:20 4,2 C 2,2 C 2,2 C 96 % 1019,5 hPa 0,0 l/m 0 min 0 min 0 W/m 0,0 km/h (0 Bft) 98,18 %
04.02.2020 18:22 4,2 C 1,7 C 1,7 C 96 % 1019,6 hPa 0,0 l/m 0 min 0 min 0 W/m 0,0 km/h (0 Bft) 98,00 %
04.02.2020 18:24 4,2 C 1,7 C 1,7 C 96 % 1019,7 hPa 0,0 l/m 0 min 0 min 0 W/m 0,0 km/h (0 Bft) 97,87 %
04.02.2020 18:26 4,1 C 1,7 C 1,7 C 96 % 1019,7 hPa 0,0 l/m 0 min 0 min 0 W/m 0,0 km/h (0 Bft) 93,62 %
04.02.2020 18:28 4,1 C 1,7 C 1,7 C 96 % 1019,7 hPa 0,0 l/m 0 min 0 min 0 W/m 0,0 km/h (0 Bft) 100,00 %
04.02.2020 18:30 4,1 C 2,2 C 1,7 C 96 % 1019,7 hPa 0,0 l/m 0 min 0 min 0 W/m 0,0 km/h (0 Bft) 100,00 %
04.02.2020 18:32 4,0 C 2,2 C 1,7 C 96 % 1019,7 hPa 0,0 l/m 0 min 0 min 0 W/m 0,0 km/h (0 Bft) 100,00 %
04.02.2020 18:34 3,9 C 2,2 C 1,7 C 96 % 1019,8 hPa 0,0 l/m 0 min 0 min 0 W/m 0,0 km/h (0 Bft) 100,00 %
04.02.2020 18:36 3,9 C 2,2 C 1,7 C 96 % 1019,9 hPa 0,0 l/m 0 min 0 min 0 W/m 0,0 km/h (0 Bft) 97,87 %
04.02.2020 18:38 3,9 C 2,2 C 1,7 C 96 % 1020,0 hPa 0,0 l/m 0 min 0 min 0 W/m 0,0 km/h (0 Bft) 98,00 %
04.02.2020 18:40 3,8 C 1,7 C 1,1 C 96 % 1020,1 hPa 0,0 l/m 0 min 0 min 0 W/m 0,0 km/h (0 Bft) 100,00 %
04.02.2020 18:42 3,8 C 1,7 C 1,1 C 96 % 1020,1 hPa 0,0 l/m 0 min 0 min 0 W/m 0,0 km/h (0 Bft) 53,49 %
04.02.2020 18:44 3,8 C 1,7 C 1,1 C 96 % 1020,1 hPa 0,0 l/m 0 min 0 min 0 W/m 0,0 km/h (0 Bft) 100,00 %
04.02.2020 18:46 3,7 C 1,7 C 1,1 C 96 % 1020,1 hPa 0,0 l/m 0 min 0 min 0 W/m 0,0 km/h (0 Bft) 96,36 %
04.02.2020 18:48 3,7 C 1,7 C 1,1 C 96 % 1020,3 hPa 0,0 l/m 0 min 0 min 0 W/m 0,0 km/h (0 Bft) 100,00 %
04.02.2020 18:50 3,7 C 1,7 C 1,1 C 96 % 1020,3 hPa 0,0 l/m 0 min 0 min 0 W/m 0,0 km/h (0 Bft) 97,87 %
04.02.2020 18:52 3,6 C 1,7 C 1,1 C 96 % 1020,4 hPa 0,0 l/m 0 min 0 min 0 W/m 0,0 km/h (0 Bft) 100,00 %
04.02.2020 18:54 3,6 C 1,1 C 1,1 C 95 % 1020,5 hPa 0,0 l/m 0 min 0 min 0 W/m 0,0 km/h (0 Bft) 100,00 %
04.02.2020 18:56 3,6 C 1,1 C 1,1 C 95 % 1020,5 hPa 0,0 l/m 0 min 0 min 0 W/m 0,0 km/h (0 Bft) 97,87 %
04.02.2020 18:58 3,5 C 1,1 C 1,1 C 95 % 1020,6 hPa 0,0 l/m 0 min 0 min 0 W/m 0,0 km/h (0 Bft) 100,00 %
04.02.2020 19:00 3,4 C 1,1 C 1,1 C 95 % 1020,6 hPa 0,0 l/m 0 min 0 min 0 W/m 0,0 km/h (0 Bft) 97,87 %
04.02.2020 19:02 3,4 C 1,1 C 0,6 C 96 % 1020,6 hPa 0,0 l/m 0 min 0 min 0 W/m 0,0 km/h (0 Bft) 98,18 %
04.02.2020 19:04 3,4 C 1,1 C 0,6 C 96 % 1020,8 hPa 0,0 l/m 0 min 0 min 0 W/m 0,0 km/h (0 Bft) 100,00 %
04.02.2020 19:06 3,3 C 1,1 C 0,6 C 96 % 1020,8 hPa 0,0 l/m 0 min 0 min 0 W/m 0,0 km/h (0 Bft) 100,00 %
04.02.2020 19:08 3,3 C 0,6 C 0,6 C 96 % 1020,9 hPa 0,0 l/m 0 min 0 min 0 W/m 0,0 km/h (0 Bft) 100,00 %
04.02.2020 19:10 3,3 C 0,6 C 0,6 C 96 % 1020,9 hPa 0,0 l/m 0 min 0 min 0 W/m 0,0 km/h (0 Bft) 100,00 %
04.02.2020 19:12 3,2 C 0,6 C 0,6 C 95 % 1020,9 hPa 0,0 l/m 0 min 0 min 0 W/m 0,0 km/h (0 Bft) 100,00 %
04.02.2020 19:14 3,2 C 0,6 C 0,6 C 95 % 1021,0 hPa 0,0 l/m 0 min 0 min 0 W/m 0,0 km/h (0 Bft) 100,00 %
04.02.2020 19:16 3,1 C 1,1 C 0,6 C 95 % 1021,0 hPa 0,0 l/m 0 min 0 min 0 W/m 0,0 km/h (0 Bft) 100,00 %
04.02.2020 19:18 3,1 C 1,1 C 0,6 C 95 % 1021,1 hPa 0,0 l/m 0 min 0 min 0 W/m 0,0 km/h (0 Bft) 97,87 %
04.02.2020 19:20 3,1 C 1,1 C 0,6 C 95 % 1021,2 hPa 0,0 l/m 0 min 0 min 0 W/m 0,0 km/h (0 Bft) 100,00 %
04.02.2020 19:22 3,0 C 0,6 C 0,0 C 95 % 1021,2 hPa 0,0 l/m 0 min 0 min 0 W/m 0,0 km/h (0 Bft) 100,00 %
04.02.2020 19:24 2,9 C 1,1 C 0,0 C 95 % 1021,3 hPa 0,0 l/m 0 min 0 min 0 W/m 0,0 km/h (0 Bft) 100,00 %
04.02.2020 19:26 2,9 C 1,1 C 0,0 C 95 % 1021,3 hPa 0,0 l/m 0 min 0 min 0 W/m 0,0 km/h (0 Bft) 97,87 %
04.02.2020 19:28 2,9 C 1,1 C 0,6 C 95 % 1021,4 hPa 0,0 l/m 0 min 0 min 0 W/m 0,0 km/h (0 Bft) 95,65 %
04.02.2020 19:30 2,8 C 1,1 C 0,6 C 95 % 1021,5 hPa 0,0 l/m 0 min 0 min 0 W/m 0,0 km/h (0 Bft) 100,00 %
04.02.2020 19:32 2,8 C 1,1 C 0,6 C 95 % 1021,5 hPa 0,0 l/m 0 min 0 min 0 W/m 0,0 km/h (0 Bft) 97,67 %
04.02.2020 19:34 2,8 C 1,1 C 0,6 C 95 % 1021,6 hPa 0,0 l/m 0 min 0 min 0 W/m 0,0 km/h (0 Bft) 100,00 %
04.02.2020 19:36 2,7 C 1,1 C 0,6 C 95 % 1021,6 hPa 0,0 l/m 0 min 0 min 0 W/m 0,0 km/h (0 Bft) 100,00 %
04.02.2020 19:38 2,7 C 1,1 C 0,0 C 95 % 1021,6 hPa 0,0 l/m 0 min 0 min 0 W/m 0,0 km/h (0 Bft) 100,00 %
04.02.2020 19:40 2,7 C 0,6 C 0,0 C 95 % 1021,6 hPa 0,0 l/m 0 min 0 min 0 W/m 0,0 km/h (0 Bft) 100,00 %
04.02.2020 19:42 2,6 C 0,6 C 0,0 C 95 % 1021,6 hPa 0,0 l/m 0 min 0 min 0 W/m 0,0 km/h (0 Bft) 100,00 %
04.02.2020 19:44 2,6 C 0,6 C 0,0 C 95 % 1021,7 hPa 0,0 l/m 0 min 0 min 0 W/m 0,0 km/h (0 Bft) 97,87 %
04.02.2020 19:46 2,6 C 0,6 C 0,0 C 95 % 1021,7 hPa 0,0 l/m 0 min 0 min 0 W/m 0,0 km/h (0 Bft) 95,74 %
04.02.2020 19:48 2,6 C 0,6 C 0,0 C 95 % 1021,7 hPa 0,0 l/m 0 min 0 min 0 W/m 0,0 km/h (0 Bft) 97,87 %
04.02.2020 19:50 2,5 C 0,6 C 0,0 C 95 % 1021,8 hPa 0,0 l/m 0 min 0 min 0 W/m 0,0 km/h (0 Bft) 97,87 %
04.02.2020 19:52 2,5 C 0,6 C 0,0 C 95 % 1021,8 hPa 0,0 l/m 0 min 0 min 0 W/m 0,0 km/h (0 Bft) 98,25 %
04.02.2020 19:54 2,4 C 0,6 C 0,0 C 95 % 1021,8 hPa 0,0 l/m 0 min 0 min 0 W/m 0,0 km/h (0 Bft) 97,87 %
04.02.2020 19:56 2,4 C 0,6 C 0,0 C 95 % 1021,8 hPa 0,0 l/m 0 min 0 min 0 W/m 0,0 km/h (0 Bft) 95,74 %
04.02.2020 19:58 2,4 C 0,0 C 0,0 C 95 % 1021,9 hPa 0,0 l/m 0 min 0 min 0 W/m 0,0 km/h (0 Bft) 97,87 %
04.02.2020 20:00 2,3 C 0,0 C 0,0 C 95 % 1021,8 hPa 0,0 l/m 0 min 0 min 0 W/m 0,0 km/h (0 Bft) 97,87 %
04.02.2020 20:02 2,3 C 0,0 C 0,0 C 95 % 1021,8 hPa 0,0 l/m 0 min 0 min 0 W/m 0,0 km/h (0 Bft) 97,83 %
04.02.2020 20:04 2,3 C 0,0 C 0,0 C 95 % 1021,8 hPa 0,0 l/m 0 min 0 min 0 W/m 0,0 km/h (0 Bft) 97,87 %
04.02.2020 20:06 2,2 C 0,0 C -0,6 C 95 % 1021,9 hPa 0,0 l/m 0 min 0 min 0 W/m 0,0 km/h (0 Bft) 97,87 %
04.02.2020 20:08 2,2 C 0,0 C -0,6 C 95 % 1021,9 hPa 0,0 l/m 0 min 0 min 0 W/m 0,0 km/h (0 Bft) 97,87 %
04.02.2020 20:10 2,2 C 0,0 C -0,6 C 95 % 1022,0 hPa 0,0 l/m 0 min 0 min 0 W/m 0,0 km/h (0 Bft) 97,87 %
04.02.2020 20:12 2,1 C 0,0 C -0,6 C 95 % 1022,1 hPa 0,0 l/m 0 min 0 min 0 W/m 0,0 km/h (0 Bft) 95,74 %
04.02.2020 20:14 2,1 C 0,0 C -0,6 C 95 % 1022,1 hPa 0,0 l/m 0 min 0 min 0 W/m 0,0 km/h (0 Bft) 97,83 %
04.02.2020 20:16 2,1 C 0,6 C -0,6 C 95 % 1022,1 hPa 0,0 l/m 0 min 0 min 0 W/m 0,0 km/h (0 Bft) 97,87 %
04.02.2020 20:18 2,0 C 0,6 C -0,6 C 95 % 1022,2 hPa 0,0 l/m 0 min 0 min 0 W/m 0,0 km/h (0 Bft) 95,74 %
04.02.2020 20:20 1,9 C 0,0 C -0,6 C 95 % 1022,2 hPa 0,0 l/m 0 min 0 min 0 W/m 0,0 km/h (0 Bft) 97,87 %
04.02.2020 20:22 1,9 C 0,0 C -0,6 C 95 % 1022,3 hPa 0,0 l/m 0 min 0 min 0 W/m 0,0 km/h (0 Bft) 97,87 %
04.02.2020 20:24 1,9 C 0,0 C -0,6 C 95 % 1022,4 hPa 0,0 l/m 0 min 0 min 0 W/m 0,0 km/h (0 Bft) 100,00 %
04.02.2020 20:26 1,9 C 0,0 C -0,6 C 95 % 1022,4 hPa 0,0 l/m 0 min 0 min 0 W/m 0,0 km/h (0 Bft) 97,83 %
04.02.2020 20:28 1,8 C 0,0 C -0,6 C 95 % 1022,5 hPa 0,0 l/m 0 min 0 min 0 W/m 0,0 km/h (0 Bft) 95,74 %
04.02.2020 20:30 1,8 C 0,0 C -0,6 C 95 % 1022,5 hPa 0,0 l/m 0 min 0 min 0 W/m 0,0 km/h (0 Bft) 97,87 %
04.02.2020 20:32 1,8 C 0,6 C -0,6 C 95 % 1022,5 hPa 0,0 l/m 0 min 0 min 0 W/m 0,0 km/h (0 Bft) 97,87 %
04.02.2020 20:34 1,8 C 0,6 C -0,6 C 95 % 1022,6 hPa 0,0 l/m 0 min 0 min 0 W/m 0,0 km/h (0 Bft) 100,00 %
04.02.2020 20:36 1,7 C 0,6 C -0,6 C 95 % 1022,7 hPa 0,0 l/m 0 min 0 min 0 W/m 0,0 km/h (0 Bft) 97,87 %
04.02.2020 20:38 1,7 C 0,6 C -0,6 C 95 % 1022,7 hPa 0,0 l/m 0 min 0 min 0 W/m 0,0 km/h (0 Bft) 97,83 %
04.02.2020 20:40 1,7 C 0,6 C 0,0 C 95 % 1022,7 hPa 0,0 l/m 0 min 0 min 0 W/m 0,0 km/h (0 Bft) 97,87 %
04.02.2020 20:42 1,7 C 0,6 C 0,0 C 95 % 1022,8 hPa 0,0 l/m 0 min 0 min 0 W/m 0,0 km/h (0 Bft) 97,87 %
04.02.2020 20:44 1,7 C 0,6 C 0,0 C 95 % 1022,8 hPa 0,0 l/m 0 min 0 min 0 W/m 0,0 km/h (0 Bft) 95,74 %
04.02.2020 20:46 1,7 C 0,6 C 0,0 C 95 % 1022,9 hPa 0,0 l/m 0 min 0 min 0 W/m 0,0 km/h (0 Bft) 95,74 %
04.02.2020 20:48 1,7 C 0,6 C 0,0 C 95 % 1022,9 hPa 0,0 l/m 0 min 0 min 0 W/m 0,0 km/h (0 Bft) 95,74 %
04.02.2020 20:50 1,7 C 0,6 C 0,0 C 95 % 1022,9 hPa 0,0 l/m 0 min 0 min 0 W/m 0,0 km/h (0 Bft) 91,30 %
04.02.2020 20:52 1,6 C 0,6 C 0,0 C 95 % 1023,0 hPa 0,0 l/m 0 min 0 min 0 W/m 0,0 km/h (0 Bft) 95,74 %
04.02.2020 20:54 1,6 C 0,6 C 0,0 C 95 % 1023,1 hPa 0,0 l/m 0 min 0 min 0 W/m 0,0 km/h (0 Bft) 95,74 %
04.02.2020 20:56 1,6 C 0,6 C 0,0 C 95 % 1023,1 hPa 0,0 l/m 0 min 0 min 0 W/m 0,0 km/h (0 Bft) 95,74 %
04.02.2020 20:58 1,6 C 0,0 C 0,0 C 95 % 1023,2 hPa 0,0 l/m 0 min 0 min 0 W/m 0,0 km/h (0 Bft) 95,74 %
04.02.2020 21:00 1,6 C 0,0 C 0,0 C 96 % 1023,3 hPa 0,0 l/m 0 min 0 min 0 W/m 0,0 km/h (0 Bft) 95,74 %
04.02.2020 21:02 1,6 C 0,0 C -0,6 C 96 % 1023,4 hPa 0,0 l/m 0 min 0 min 0 W/m 0,0 km/h (0 Bft) 95,65 %
04.02.2020 21:04 1,6 C 0,6 C -0,6 C 95 % 1023,4 hPa 0,0 l/m 0 min 0 min 0 W/m 0,0 km/h (0 Bft) 95,74 %
04.02.2020 21:06 1,6 C 0,6 C -0,6 C 95 % 1023,5 hPa 0,0 l/m 0 min 0 min 0 W/m 0,0 km/h (0 Bft) 95,74 %
04.02.2020 21:08 1,6 C 0,6 C -0,6 C 95 % 1023,5 hPa 0,0 l/m 0 min 0 min 0 W/m 0,0 km/h (0 Bft) 93,62 %
04.02.2020 21:10 1,6 C 0,6 C -0,6 C 95 % 1023,6 hPa 0,0 l/m 0 min 0 min 0 W/m 0,0 km/h (0 Bft) 95,74 %
04.02.2020 21:12 1,6 C 0,6 C -0,6 C 95 % 1023,6 hPa 0,0 l/m 0 min 0 min 0 W/m 0,0 km/h (0 Bft) 95,65 %
04.02.2020 21:14 1,6 C 0,6 C 0,0 C 95 % 1023,6 hPa 0,0 l/m 0 min 0 min 0 W/m 6,4 km/h (2 Bft) 95,74 %
04.02.2020 21:16 1,6 C 0,6 C 0,0 C 96 % 1023,7 hPa 0,0 l/m 0 min 0 min 0 W/m 3,2 km/h (1 Bft) 95,74 %
04.02.2020 21:18 1,6 C 0,6 C 0,0 C 96 % 1023,7 hPa 0,0 l/m 0 min 0 min 0 W/m 0,0 km/h (0 Bft) 95,74 %
04.02.2020 21:20 1,6 C 0,0 C 0,0 C 96 % 1023,7 hPa 0,0 l/m 0 min 0 min 0 W/m 3,2 km/h (1 Bft) 95,74 %
04.02.2020 21:22 1,6 C 0,6 C 0,0 C 96 % 1023,8 hPa 0,0 l/m 0 min 0 min 0 W/m 3,2 km/h (1 Bft) 95,74 %
04.02.2020 21:24 1,6 C 0,6 C 0,0 C 96 % 1023,8 hPa 0,0 l/m 0 min 0 min 0 W/m 0,0 km/h (0 Bft) 93,48 %
04.02.2020 21:26 1,6 C 0,6 C -0,6 C 96 % 1023,8 hPa 0,0 l/m 0 min 0 min 0 W/m 0,0 km/h (0 Bft) 95,74 %
04.02.2020 21:28 1,6 C 0,6 C -0,6 C 96 % 1023,9 hPa 0,0 l/m 0 min 0 min 0 W/m 0,0 km/h (0 Bft) 95,74 %
04.02.2020 21:30 1,6 C 0,6 C 0,0 C 96 % 1023,9 hPa 0,0 l/m 0 min 0 min 0 W/m 3,2 km/h (1 Bft) 97,87 %
04.02.2020 21:32 1,6 C 0,6 C 0,0 C 96 % 1024,0 hPa 0,0 l/m 0 min 0 min 0 W/m 0,0 km/h (0 Bft) 95,74 %
04.02.2020 21:34 1,6 C 0,0 C 0,0 C 96 % 1024,1 hPa 0,0 l/m 0 min 0 min 0 W/m 0,0 km/h (0 Bft) 97,87 %
04.02.2020 21:36 1,6 C 0,6 C -0,6 C 96 % 1024,2 hPa 0,0 l/m 0 min 0 min 0 W/m 0,0 km/h (0 Bft) 97,83 %
04.02.2020 21:38 1,6 C 0,6 C 0,0 C 96 % 1024,3 hPa 0,0 l/m 0 min 0 min 0 W/m 3,2 km/h (1 Bft) 100,00 %
04.02.2020 21:40 1,6 C 0,6 C 0,0 C 96 % 1024,3 hPa 0,0 l/m 0 min 0 min 0 W/m 0,0 km/h (0 Bft) 100,00 %
04.02.2020 21:42 1,6 C 0,6 C 0,0 C 96 % 1024,4 hPa 0,0 l/m 0 min 0 min 0 W/m 0,0 km/h (0 Bft) 95,74 %
04.02.2020 21:44 1,6 C 0,6 C 0,0 C 96 % 1024,6 hPa 0,0 l/m 0 min 2 min 0 W/m 6,4 km/h (2 Bft) 100,00 %
04.02.2020 21:46 1,6 C 0,6 C 0,0 C 96 % 1024,6 hPa 0,0 l/m 0 min 0 min 0 W/m 0,0 km/h (0 Bft) 97,96 %
04.02.2020 21:48 1,6 C 0,6 C 0,0 C 96 % 1024,7 hPa 0,0 l/m 0 min 0 min 0 W/m 3,2 km/h (1 Bft) 95,74 %
04.02.2020 21:50 1,6 C 0,6 C 0,0 C 96 % 1024,8 hPa 0,0 l/m 0 min 0 min 0 W/m 3,2 km/h (1 Bft) 97,87 %
04.02.2020 21:52 1,6 C 0,6 C 0,0 C 96 % 1024,9 hPa 0,0 l/m 0 min 0 min 0 W/m 0,0 km/h (0 Bft) 97,87 %
04.02.2020 21:54 1,6 C 0,6 C 0,0 C 96 % 1025,0 hPa 0,0 l/m 0 min 0 min 0 W/m 6,4 km/h (2 Bft) 97,87 %
04.02.2020 21:56 1,6 C 0,6 C 0,0 C 96 % 1025,2 hPa 0,0 l/m 0 min 0 min 0 W/m 0,0 km/h (0 Bft) 97,87 %
04.02.2020 21:58 1,6 C 0,6 C 0,0 C 96 % 1025,3 hPa 0,0 l/m 0 min 0 min 0 W/m 3,2 km/h (1 Bft) 97,83 %
04.02.2020 22:00 1,6 C 0,6 C 0,0 C 96 % 1025,4 hPa 0,0 l/m 0 min 0 min 0 W/m 3,2 km/h (1 Bft) 97,87 %
04.02.2020 22:02 1,6 C 0,6 C 0,0 C 96 % 1025,5 hPa 0,0 l/m 0 min 0 min 0 W/m 3,2 km/h (1 Bft) 91,49 %
04.02.2020 22:04 1,6 C 0,6 C 0,0 C 96 % 1025,6 hPa 0,0 l/m 0 min 0 min 0 W/m 3,2 km/h (1 Bft) 95,74 %
04.02.2020 22:06 1,6 C 0,6 C 0,0 C 96 % 1025,6 hPa 0,0 l/m 0 min 0 min 0 W/m 0,0 km/h (0 Bft) 97,87 %
04.02.2020 22:08 1,6 C 0,6 C 0,0 C 96 % 1025,7 hPa 0,0 l/m 0 min 0 min 0 W/m 0,0 km/h (0 Bft) 97,87 %
04.02.2020 22:10 1,6 C 0,6 C 0,0 C 96 % 1025,8 hPa 0,0 l/m 0 min 0 min 0 W/m 0,0 km/h (0 Bft) 95,65 %
04.02.2020 22:12 1,6 C 0,6 C 0,0 C 96 % 1025,9 hPa 0,0 l/m 0 min 0 min 0 W/m 0,0 km/h (0 Bft) 95,74 %
04.02.2020 22:14 1,6 C 0,6 C 0,0 C 96 % 1026,0 hPa 0,0 l/m 0 min 0 min 0 W/m 0,0 km/h (0 Bft) 97,87 %
04.02.2020 22:16 1,6 C 0,6 C 0,0 C 97 % 1026,1 hPa 0,0 l/m 0 min 0 min 0 W/m 3,2 km/h (1 Bft) 95,74 %
04.02.2020 22:18 1,6 C 0,6 C 0,0 C 97 % 1026,2 hPa 0,0 l/m 0 min 0 min 0 W/m 3,2 km/h (1 Bft) 97,87 %
04.02.2020 22:20 1,6 C 0,6 C 0,0 C 97 % 1026,2 hPa 0,0 l/m 0 min 0 min 0 W/m 0,0 km/h (0 Bft) 97,87 %
04.02.2020 22:22 1,6 C 0,6 C 0,0 C 97 % 1026,2 hPa 0,0 l/m 0 min 0 min 0 W/m 0,0 km/h (0 Bft) 100,00 %
04.02.2020 22:24 1,6 C 0,6 C 0,0 C 97 % 1026,3 hPa 0,0 l/m 0 min 0 min 0 W/m 0,0 km/h (0 Bft) 100,00 %
04.02.2020 22:26 1,6 C 0,6 C 0,6 C 97 % 1026,3 hPa 0,0 l/m 0 min 0 min 0 W/m 6,4 km/h (2 Bft) 97,87 %
04.02.2020 22:28 1,6 C 0,6 C 0,6 C 97 % 1026,5 hPa 0,0 l/m 0 min 0 min 0 W/m 0,0 km/h (0 Bft) 100,00 %
04.02.2020 22:30 1,6 C 0,6 C 0,6 C 97 % 1026,5 hPa 0,0 l/m 0 min 0 min 0 W/m 0,0 km/h (0 Bft) 100,00 %
04.02.2020 22:32 1,6 C 0,6 C 0,6 C 97 % 1026,5 hPa 0,0 l/m 0 min 0 min 0 W/m 0,0 km/h (0 Bft) 100,00 %
04.02.2020 22:34 1,6 C 0,6 C 0,6 C 97 % 1026,5 hPa 0,0 l/m 0 min 0 min 0 W/m 0,0 km/h (0 Bft) 100,00 %
04.02.2020 22:36 1,6 C 0,6 C 0,6 C 97 % 1026,6 hPa 0,0 l/m 0 min 0 min 0 W/m 6,4 km/h (2 Bft) 100,00 %
04.02.2020 22:38 1,6 C 0,6 C 0,6 C 97 % 1026,5 hPa 0,0 l/m 0 min 0 min 0 W/m 0,0 km/h (0 Bft) 68,09 %
04.02.2020 22:40 1,6 C 0,6 C 0,6 C 97 % 1026,6 hPa 0,0 l/m 0 min 0 min 0 W/m 0,0 km/h (0 Bft) 82,35 %
04.02.2020 22:42 1,6 C 0,6 C 0,6 C 97 % 1026,7 hPa 0,0 l/m 0 min 0 min 0 W/m 3,2 km/h (1 Bft) 100,00 %
04.02.2020 22:44 1,6 C 0,6 C 0,6 C 97 % 1026,6 hPa 0,0 l/m 0 min 0 min 0 W/m 0,0 km/h (0 Bft) 100,00 %
04.02.2020 22:46 1,6 C 0,6 C 0,6 C 97 % 1026,6 hPa 0,0 l/m 0 min 0 min 0 W/m 3,2 km/h (1 Bft) 97,83 %
04.02.2020 22:48 1,6 C 0,6 C 0,0 C 97 % 1026,6 hPa 0,0 l/m 0 min 0 min 0 W/m 0,0 km/h (0 Bft) 100,00 %
04.02.2020 22:50 1,6 C 0,6 C 0,0 C 97 % 1026,5 hPa 0,0 l/m 0 min 0 min 0 W/m 0,0 km/h (0 Bft) 100,00 %
04.02.2020 22:52 1,6 C 0,6 C 0,0 C 97 % 1026,6 hPa 0,0 l/m 0 min 0 min 0 W/m 0,0 km/h (0 Bft) 97,87 %
04.02.2020 22:54 1,6 C 0,6 C 0,0 C 97 % 1026,6 hPa 0,0 l/m 0 min 0 min 0 W/m 0,0 km/h (0 Bft) 97,87 %
04.02.2020 22:56 1,6 C 0,6 C 0,0 C 97 % 1026,5 hPa 0,0 l/m 0 min 0 min 0 W/m 0,0 km/h (0 Bft) 100,00 %
04.02.2020 22:58 1,6 C 0,6 C 0,0 C 97 % 1026,6 hPa 0,0 l/m 0 min 0 min 0 W/m 0,0 km/h (0 Bft) 100,00 %
04.02.2020 23:00 1,6 C 0,6 C 0,0 C 97 % 1026,6 hPa 0,0 l/m 0 min 0 min 0 W/m 0,0 km/h (0 Bft) 97,87 %
04.02.2020 23:02 1,6 C 0,0 C 0,0 C 97 % 1026,7 hPa 0,0 l/m 0 min 0 min 0 W/m 0,0 km/h (0 Bft) 100,00 %
04.02.2020 23:04 1,6 C 0,0 C 0,0 C 97 % 1026,7 hPa 0,0 l/m 0 min 0 min 0 W/m 0,0 km/h (0 Bft) 100,00 %
04.02.2020 23:06 1,6 C 0,0 C 0,0 C 97 % 1026,7 hPa 0,0 l/m 0 min 0 min 0 W/m 0,0 km/h (0 Bft) 100,00 %
04.02.2020 23:08 1,5 C 0,0 C 0,0 C 97 % 1026,7 hPa 0,0 l/m 0 min 0 min 0 W/m 0,0 km/h (0 Bft) 100,00 %
04.02.2020 23:10 1,5 C 0,0 C 0,0 C 97 % 1026,8 hPa 0,0 l/m 0 min 0 min 0 W/m 0,0 km/h (0 Bft) 100,00 %
04.02.2020 23:12 1,5 C 0,0 C 0,0 C 97 % 1026,9 hPa 0,0 l/m 0 min 0 min 0 W/m 0,0 km/h (0 Bft) 100,00 %
04.02.2020 23:14 1,5 C 0,0 C 0,0 C 97 % 1026,9 hPa 0,0 l/m 0 min 0 min 0 W/m 0,0 km/h (0 Bft) 100,00 %
04.02.2020 23:16 1,4 C 0,0 C 0,0 C 97 % 1026,9 hPa 0,0 l/m 0 min 0 min 0 W/m 0,0 km/h (0 Bft) 100,00 %
04.02.2020 23:18 1,4 C 0,0 C 0,0 C 97 % 1027,0 hPa 0,0 l/m 0 min 0 min 0 W/m 3,2 km/h (1 Bft) 100,00 %
04.02.2020 23:20 1,4 C 0,0 C 0,0 C 97 % 1027,0 hPa 0,0 l/m 0 min 0 min 0 W/m 3,2 km/h (1 Bft) 100,00 %
04.02.2020 23:22 1,4 C 0,0 C 0,0 C 97 % 1027,1 hPa 0,0 l/m 0 min 0 min 0 W/m 0,0 km/h (0 Bft) 100,00 %
04.02.2020 23:24 1,4 C 0,0 C 0,0 C 97 % 1027,2 hPa 0,0 l/m 0 min 0 min 0 W/m 0,0 km/h (0 Bft) 97,87 %
04.02.2020 23:26 1,4 C 0,0 C 0,0 C 97 % 1027,2 hPa 0,0 l/m 0 min 0 min 0 W/m 0,0 km/h (0 Bft) 97,87 %
04.02.2020 23:28 1,4 C 0,0 C 0,0 C 97 % 1027,2 hPa 0,0 l/m 0 min 0 min 0 W/m 3,2 km/h (1 Bft) 95,74 %
04.02.2020 23:30 1,4 C 0,0 C 0,0 C 97 % 1027,3 hPa 0,0 l/m 0 min 0 min 0 W/m 3,2 km/h (1 Bft) 95,74 %
04.02.2020 23:32 1,4 C 0,0 C 0,0 C 97 % 1027,3 hPa 0,0 l/m 0 min 0 min 0 W/m 0,0 km/h (0 Bft) 93,48 %
04.02.2020 23:34 1,3 C 0,0 C 0,0 C 97 % 1027,4 hPa 0,0 l/m 0 min 0 min 0 W/m 0,0 km/h (0 Bft) 97,87 %
04.02.2020 23:36 1,3 C 0,0 C 0,0 C 97 % 1027,4 hPa 0,0 l/m 0 min 0 min 0 W/m 0,0 km/h (0 Bft) 97,87 %
04.02.2020 23:38 1,3 C 0,0 C 0,0 C 97 % 1027,4 hPa 0,0 l/m 0 min 0 min 0 W/m 0,0 km/h (0 Bft) 97,87 %
04.02.2020 23:40 1,3 C 0,0 C 0,0 C 97 % 1027,4 hPa 0,0 l/m 0 min 0 min 0 W/m 0,0 km/h (0 Bft) 97,87 %
04.02.2020 23:42 1,3 C 0,0 C 0,0 C 97 % 1027,5 hPa 0,0 l/m 0 min 0 min 0 W/m 0,0 km/h (0 Bft) 93,62 %
04.02.2020 23:44 1,3 C 0,0 C -0,6 C 97 % 1027,4 hPa 0,0 l/m 0 min 0 min 0 W/m 0,0 km/h (0 Bft) 97,83 %
04.02.2020 23:46 1,3 C 0,0 C -0,6 C 97 % 1027,4 hPa 0,0 l/m 0 min 0 min 0 W/m 0,0 km/h (0 Bft) 97,87 %
04.02.2020 23:48 1,3 C 0,0 C -0,6 C 97 % 1027,5 hPa 0,0 l/m 0 min 0 min 0 W/m 0,0 km/h (0 Bft) 95,74 %
04.02.2020 23:50 1,3 C 0,0 C -0,6 C 97 % 1027,5 hPa 0,0 l/m 0 min 0 min 0 W/m 0,0 km/h (0 Bft) 95,74 %
04.02.2020 23:52 1,3 C 0,0 C -0,6 C 97 % 1027,5 hPa 0,0 l/m 0 min 0 min 0 W/m 0,0 km/h (0 Bft) 97,87 %
04.02.2020 23:54 1,3 C 0,0 C -0,6 C 97 % 1027,6 hPa 0,0 l/m 0 min 0 min 0 W/m 0,0 km/h (0 Bft) 95,74 %
04.02.2020 23:56 1,3 C 0,0 C -0,6 C 97 % 1027,6 hPa 0,0 l/m 0 min 0 min 0 W/m 0,0 km/h (0 Bft) 95,65 %
04.02.2020 23:58 1,3 C 0,0 C -0,6 C 97 % 1027,7 hPa 0,0 l/m 0 min 0 min 0 W/m 0,0 km/h (0 Bft) 95,74 %
_ Min-Zeit 23:34 19:58 20:06 13:34 00:00 - - - - 00:00 16:32
Minimum _ 1,3 C 0,0 C -0,6 C 88 % 1006,7 hPa - - - - 0,0 km/h (0 Bft) 50,00 %
_ Max-Zeit 13:20 13:00 13:00 01:04 23:58 10:50 09:20 00:08 13:00 07:18 00:34
Maximum _ 6,6 C 11,7 C 6,1 C 98 % 1027,7 hPa 0,4 l/m 2 min 4 min 520 W/m 35,4 km/h
S (5 Bft)
100,00 %
Durchschnitt _ 4,3 C 3,4 C 2,7 C 95 % 1014,9 hPa #4,6 l/m #1:10 h #6:30 h 92 W/m 11,0 km/h (2 Bft) 97,16 %
© 2020 W. Hausmann